Observation data for Smyer on 06/25/2019      Previous  Date  Next       Current Mesonet Observations  Soil Data  Daily Summary Page  Observations in Plain Language
KSM2 250500Z 13009KT 22/19 A2999 RMK A01 T02220186  RH  080%=      5-min Rain = 0
KSM2 250501Z 13008G13KT 22/19 A2999 RMK A01 T02230187  RH  080%=      5-min Rain = 0
KSM2 250502Z 13009KT 22/19 A2999 RMK A01 T02220187  RH  080%=      5-min Rain = 0
KSM2 250503Z 14008KT 22/19 A2999 RMK A01 T02230187  RH  080%=      5-min Rain = 0
KSM2 250504Z 13007KT 22/19 A2999 RMK A01 T02220187  RH  080%=      5-min Rain = 0
KSM2 250505Z 13008KT 22/19 A2999 RMK A01 T02220186  RH  080%=      5-min Rain = 0
KSM2 250506Z 13009KT 22/19 A2999 RMK A01 T02220186  RH  080%=      5-min Rain = 0
KSM2 250507Z 14009KT 22/19 A2999 RMK A01 T02220187  RH  080%=      5-min Rain = 0
KSM2 250508Z 14009KT 22/19 A2999 RMK A01 T02220186  RH  080%=      5-min Rain = 0
KSM2 250509Z 13008KT 22/19 A2999 RMK A01 T02220186  RH  080%=      5-min Rain = 0
KSM2 250510Z 14007KT 22/19 A2999 RMK A01 T02210186  RH  080%=      5-min Rain = 0
KSM2 250511Z 13007KT 22/19 A2999 RMK A01 T02210186  RH  081%=      5-min Rain = 0
KSM2 250512Z 14009KT 22/19 A2999 RMK A01 T02210186  RH  081%=      5-min Rain = 0
KSM2 250513Z 14008KT 22/19 A2999 RMK A01 T02210186  RH  081%=      5-min Rain = 0
KSM2 250514Z 13007KT 22/19 A2999 RMK A01 T02210186  RH  081%=      5-min Rain = 0
KSM2 250515Z 14008KT 22/19 A2999 RMK A01 T02200186  RH  081%=      5-min Rain = 0
KSM2 250516Z 13008KT 22/19 A2999 RMK A01 T02200186  RH  081%=      5-min Rain = 0
KSM2 250517Z 13008KT 22/19 A2999 RMK A01 T02200186  RH  081%=      5-min Rain = 0
KSM2 250518Z 13009KT 22/19 A2999 RMK A01 T02200185  RH  081%=      5-min Rain = 0
KSM2 250519Z 12009KT 22/19 A2999 RMK A01 T02200185  RH  081%=      5-min Rain = 0
KSM2 250520Z 13007KT 22/19 A2999 RMK A01 T02200185  RH  081%=      5-min Rain = 0
KSM2 250521Z 13007KT 22/19 A2999 RMK A01 T02200185  RH  081%=      5-min Rain = 0
KSM2 250522Z 13008KT 22/19 A2999 RMK A01 T02200185  RH  081%=      5-min Rain = 0
KSM2 250523Z 12007KT 22/19 A2999 RMK A01 T02200185  RH  081%=      5-min Rain = 0
KSM2 250524Z 13007KT 22/19 A2999 RMK A01 T02200185  RH  080%=      5-min Rain = 0
KSM2 250525Z 13007KT 22/19 A2999 RMK A01 T02200185  RH  080%=      5-min Rain = 0
KSM2 250526Z 13006KT 22/19 A2999 RMK A01 T02200185  RH  081%=      5-min Rain = 0
KSM2 250527Z 13008KT 22/19 A2999 RMK A01 T02200185  RH  081%=      5-min Rain = 0
KSM2 250528Z 13006KT 22/18 A2999 RMK A01 T02190184  RH  081%=      5-min Rain = 0
KSM2 250529Z 13006KT 22/18 A2999 RMK A01 T02190184  RH  081%=      5-min Rain = 0
KSM2 250530Z 13007KT 22/18 A2999 RMK A01 T02190184  RH  081%=      5-min Rain = 0
KSM2 250531Z 13007KT 22/18 A2999 RMK A01 T02190184  RH  081%=      5-min Rain = 0
KSM2 250532Z 14007G12KT 22/18 A2999 RMK A01 T02190184  RH  081%=      5-min Rain = 0
KSM2 250533Z 13006KT 22/18 A2999 RMK A01 T02190184  RH  081%=      5-min Rain = 0
KSM2 250534Z 14007KT 22/18 A2999 RMK A01 T02190184  RH  081%=      5-min Rain = 0
KSM2 250535Z 14007KT 22/18 A2999 RMK A01 T02190184  RH  081%=      5-min Rain = 0
KSM2 250536Z 14008KT 22/18 A2999 RMK A01 T02190184  RH  081%=      5-min Rain = 0
KSM2 250537Z 15008KT 22/19 A2999 RMK A01 T02190185  RH  081%=      5-min Rain = 0
KSM2 250538Z 14007KT 22/19 A2999 RMK A01 T02190185  RH  081%=      5-min Rain = 0
KSM2 250539Z 15006KT 22/19 A2999 RMK A01 T02190186  RH  081%=      5-min Rain = 0
KSM2 250540Z 15006KT 22/19 A2999 RMK A01 T02190186  RH  081%=      5-min Rain = 0
KSM2 250541Z 14009KT 22/19 A2999 RMK A01 T02200187  RH  082%=      5-min Rain = 0
KSM2 250542Z 15009KT 22/19 A2999 RMK A01 T02200189  RH  082%=      5-min Rain = 0
KSM2 250543Z 15009KT 22/19 A2999 RMK A01 T02220191  RH  082%=      5-min Rain = 0
KSM2 250544Z 15010KT 22/19 A2999 RMK A01 T02230191  RH  082%=      5-min Rain = 0
KSM2 250545Z 15010KT 22/19 A2999 RMK A01 T02240191  RH  082%=      5-min Rain = 0
KSM2 250546Z 14010KT 23/19 A2999 RMK A01 T02250190  RH  080%=      5-min Rain = 0
KSM2 250547Z 15014KT 23/19 A2999 RMK A01 T02270187  RH  078%=      5-min Rain = 0
KSM2 250548Z 15013KT 23/18 A2999 RMK A01 T02280183  RH  076%=      5-min Rain = 0
KSM2 250549Z 15011KT 23/18 A2999 RMK A01 T02290179  RH  073%=      5-min Rain = 0
KSM2 250550Z 15010KT 23/18 A2999 RMK A01 T02290175  RH  072%=      5-min Rain = 0
KSM2 250551Z 15012KT 23/17 A2999 RMK A01 T02290172  RH  070%=      5-min Rain = 0
KSM2 250552Z 14013KT 23/17 A2999 RMK A01 T02290168  RH  069%=      5-min Rain = 0
KSM2 250553Z 15012G17KT 23/16 A2999 RMK A01 T02290164  RH  067%=      5-min Rain = 0
KSM2 250554Z 15013G18KT 23/16 A2999 RMK A01 T02290157  RH  064%=      5-min Rain = 0
KSM2 250555Z 15013G18KT 23/15 A2999 RMK A01 T02290152  RH  062%=      5-min Rain = 0
KSM2 250556Z 15014KT 23/15 A2999 RMK A01 T02300152  RH  062%=      5-min Rain = 0
KSM2 250557Z 15012KT 23/15 A2999 RMK A01 T02290151  RH  061%=      5-min Rain = 0
KSM2 250558Z 15011KT 23/15 A2999 RMK A01 T02290151  RH  061%=      5-min Rain = 0
KSM2 250559Z 15010KT 23/15 A2999 RMK A01 T02290152  RH  062%=      5-min Rain = 0
KSM2 250600Z 15012KT 23/15 A2999 RMK A01 T02280153  RH  063%=      5-min Rain = 0
KSM2 250601Z 16014KT 23/15 A2999 RMK A01 T02270153  RH  063%=      5-min Rain = 0
KSM2 250602Z 16013KT 23/16 A2999 RMK A01 T02270155  RH  064%=      5-min Rain = 0
KSM2 250603Z 15011KT 23/16 A2999 RMK A01 T02260155  RH  064%=      5-min Rain = 0
KSM2 250604Z 15011KT 23/16 A2999 RMK A01 T02260156  RH  065%=      5-min Rain = 0
KSM2 250605Z 15010KT 23/16 A2999 RMK A01 T02260157  RH  065%=      5-min Rain = 0
KSM2 250606Z 15010KT 23/16 A2999 RMK A01 T02250158  RH  066%=      5-min Rain = 0
KSM2 250607Z 16011G16KT 23/16 A2999 RMK A01 T02250159  RH  066%=      5-min Rain = 0
KSM2 250608Z 15011KT 22/16 A2999 RMK A01 T02240159  RH  067%=      5-min Rain = 0
KSM2 250609Z 16012KT 22/16 A2999 RMK A01 T02240160  RH  067%=      5-min Rain = 0
KSM2 250610Z 16011KT 22/16 A2999 RMK A01 T02240161  RH  068%=      5-min Rain = 0
KSM2 250611Z 15008KT 22/16 A2999 RMK A01 T02230161  RH  068%=      5-min Rain = 0
KSM2 250612Z 16008KT 22/16 A2999 RMK A01 T02230162  RH  068%=      5-min Rain = 0
KSM2 250613Z 16008KT 22/16 A2999 RMK A01 T02220163  RH  069%=      5-min Rain = 0
KSM2 250614Z 15009KT 22/16 A2999 RMK A01 T02220164  RH  070%=      5-min Rain = 0
KSM2 250615Z 16009KT 22/16 A2999 RMK A01 T02210164  RH  070%=      5-min Rain = 0
KSM2 250616Z 15010KT 22/17 A2999 RMK A01 T02200165  RH  071%=      5-min Rain = 0
KSM2 250617Z 15009KT 22/17 A2999 RMK A01 T02200165  RH  071%=      5-min Rain = 0
KSM2 250618Z 15008KT 22/17 A2999 RMK A01 T02200165  RH  071%=      5-min Rain = 0
KSM2 250619Z 16009KT 22/17 A2999 RMK A01 T02200166  RH  071%=      5-min Rain = 0
KSM2 250620Z 16010KT 22/17 A2999 RMK A01 T02190166  RH  072%=      5-min Rain = 0
KSM2 250621Z 16008KT 22/17 A2999 RMK A01 T02190166  RH  072%=      5-min Rain = 0
KSM2 250622Z 16010KT 22/17 A2999 RMK A01 T02190166  RH  072%=      5-min Rain = 0
KSM2 250623Z 16008KT 22/17 A2999 RMK A01 T02190166  RH  072%=      5-min Rain = 0
KSM2 250624Z 16008KT 22/17 A2998 RMK A01 T02180167  RH  072%=      5-min Rain = 0
KSM2 250625Z 16008KT 22/17 A2998 RMK A01 T02180167  RH  073%=      5-min Rain = 0
KSM2 250626Z 16009KT 22/17 A2998 RMK A01 T02170167  RH  073%=      5-min Rain = 0
KSM2 250627Z 16010KT 22/17 A2999 RMK A01 T02170168  RH  073%=      5-min Rain = 0
KSM2 250628Z 16008KT 22/17 A2999 RMK A01 T02170168  RH  074%=      5-min Rain = 0
KSM2 250629Z 16008KT 22/17 A2999 RMK A01 T02170169  RH  074%=      5-min Rain = 0
KSM2 250630Z 16010KT 22/17 A2999 RMK A01 T02170169  RH  074%=      5-min Rain = 0
KSM2 250631Z 17009KT 22/17 A2998 RMK A01 T02160169  RH  074%=      5-min Rain = 0
KSM2 250632Z 17009KT 22/17 A2998 RMK A01 T02160169  RH  075%=      5-min Rain = 0
KSM2 250633Z 17008KT 22/17 A2998 RMK A01 T02160169  RH  075%=      5-min Rain = 0
KSM2 250634Z 17007KT 22/17 A2998 RMK A01 T02160169  RH  075%=      5-min Rain = 0
KSM2 250635Z 17008KT 22/17 A2998 RMK A01 T02160169  RH  075%=      5-min Rain = 0
KSM2 250636Z 17008KT 22/17 A2998 RMK A01 T02150169  RH  075%=      5-min Rain = 0
KSM2 250637Z 17007KT 21/17 A2998 RMK A01 T02140169  RH  075%=      5-min Rain = 0
KSM2 250638Z 18007KT 21/17 A2998 RMK A01 T02140168  RH  075%=      5-min Rain = 0
KSM2 250639Z 18007KT 21/17 A2998 RMK A01 T02130167  RH  075%=      5-min Rain = 0
KSM2 250640Z 18008KT 21/17 A2998 RMK A01 T02130166  RH  074%=      5-min Rain = 0
KSM2 250641Z 18009KT 21/17 A2998 RMK A01 T02130165  RH  074%=      5-min Rain = 0
KSM2 250642Z 18008KT 21/16 A2998 RMK A01 T02130164  RH  074%=      5-min Rain = 0
KSM2 250643Z 17007KT 21/16 A2998 RMK A01 T02130164  RH  074%=      5-min Rain = 0
KSM2 250644Z 17008KT 21/16 A2998 RMK A01 T02120163  RH  074%=      5-min Rain = 0
KSM2 250645Z 17008KT 21/16 A2998 RMK A01 T02120163  RH  074%=      5-min Rain = 0
KSM2 250646Z 17007KT 21/16 A2998 RMK A01 T02120163  RH  074%=      5-min Rain = 0
KSM2 250647Z 17007KT 21/16 A2998 RMK A01 T02120163  RH  074%=      5-min Rain = 0
KSM2 250648Z 17007KT 21/16 A2998 RMK A01 T02110163  RH  074%=      5-min Rain = 0
KSM2 250649Z 17009KT 21/16 A2998 RMK A01 T02110163  RH  074%=      5-min Rain = 0
KSM2 250650Z 17008KT 21/16 A2998 RMK A01 T02110163  RH  074%=      5-min Rain = 0
KSM2 250651Z 18008KT 21/16 A2998 RMK A01 T02110163  RH  074%=      5-min Rain = 0
KSM2 250652Z 17007KT 21/16 A2998 RMK A01 T02100163  RH  074%=      5-min Rain = 0
KSM2 250653Z 17007KT 21/16 A2998 RMK A01 T02100162  RH  074%=      5-min Rain = 0
KSM2 250654Z 17006KT 21/16 A2998 RMK A01 T02100162  RH  074%=      5-min Rain = 0
KSM2 250655Z 17008KT 21/16 A2998 RMK A01 T02090162  RH  074%=      5-min Rain = 0
KSM2 250656Z 18008KT 21/16 A2998 RMK A01 T02090161  RH  074%=      5-min Rain = 0
KSM2 250657Z 17007KT 21/16 A2998 RMK A01 T02100161  RH  074%=      5-min Rain = 0
KSM2 250658Z 18006KT 21/16 A2998 RMK A01 T02090161  RH  074%=      5-min Rain = 0
KSM2 250659Z 17006KT 21/16 A2998 RMK A01 T02090161  RH  074%=      5-min Rain = 0
KSM2 250700Z 17007KT 21/16 A2998 RMK A01 T02080161  RH  074%=      5-min Rain = 0
KSM2 250701Z 17006KT 21/16 A2998 RMK A01 T02080160  RH  074%=      5-min Rain = 0
KSM2 250702Z 17008KT 21/16 A2998 RMK A01 T02080160  RH  074%=      5-min Rain = 0
KSM2 250703Z 17007KT 21/16 A2998 RMK A01 T02070159  RH  074%=      5-min Rain = 0
KSM2 250704Z 18007KT 21/16 A2998 RMK A01 T02080159  RH  074%=      5-min Rain = 0
KSM2 250705Z 18006KT 21/16 A2998 RMK A01 T02070159  RH  074%=      5-min Rain = 0
KSM2 250706Z 18007KT 21/16 A2998 RMK A01 T02070158  RH  074%=      5-min Rain = 0
KSM2 250707Z 17008KT 21/16 A2998 RMK A01 T02060156  RH  073%=      5-min Rain = 0
KSM2 250708Z 17007KT 21/16 A2998 RMK A01 T02060156  RH  073%=      5-min Rain = 0
KSM2 250709Z 17008KT 21/15 A2998 RMK A01 T02060153  RH  072%=      5-min Rain = 0
KSM2 250710Z 17008KT 21/15 A2998 RMK A01 T02070153  RH  071%=      5-min Rain = 0
KSM2 250711Z 17008KT 21/15 A2998 RMK A01 T02070151  RH  071%=      5-min Rain = 0
KSM2 250712Z 18008KT 21/15 A2998 RMK A01 T02060151  RH  070%=      5-min Rain = 0
KSM2 250713Z 17009KT 21/15 A2998 RMK A01 T02060150  RH  070%=      5-min Rain = 0
KSM2 250714Z 18008KT 21/15 A2998 RMK A01 T02060149  RH  070%=      5-min Rain = 0
KSM2 250715Z 17007KT 21/15 A2998 RMK A01 T02060149  RH  070%=      5-min Rain = 0
KSM2 250716Z 17008KT 21/15 A2998 RMK A01 T02060149  RH  070%=      5-min Rain = 0
KSM2 250717Z 17008KT 21/15 A2998 RMK A01 T02060148  RH  069%=      5-min Rain = 0
KSM2 250718Z 17007KT 21/15 A2998 RMK A01 T02060148  RH  069%=      5-min Rain = 0
KSM2 250719Z 18007KT 21/15 A2998 RMK A01 T02060148  RH  069%=      5-min Rain = 0
KSM2 250720Z 18008KT 21/15 A2998 RMK A01 T02050147  RH  069%=      5-min Rain = 0
KSM2 250721Z 18008KT 21/15 A2998 RMK A01 T02050147  RH  069%=      5-min Rain = 0
KSM2 250722Z 18007KT 21/15 A2998 RMK A01 T02050147  RH  069%=      5-min Rain = 0
KSM2 250723Z 17007KT 21/15 A2997 RMK A01 T02050147  RH  069%=      5-min Rain = 0
KSM2 250724Z 17007KT 20/15 A2998 RMK A01 T02040146  RH  069%=      5-min Rain = 0
KSM2 250725Z 17007KT 20/15 A2998 RMK A01 T02040146  RH  069%=      5-min Rain = 0
KSM2 250726Z 17007KT 20/15 A2998 RMK A01 T02040146  RH  069%=      5-min Rain = 0
KSM2 250727Z 16006KT 20/15 A2998 RMK A01 T02040146  RH  069%=      5-min Rain = 0
KSM2 250728Z 17006KT 20/15 A2998 RMK A01 T02030146  RH  070%=      5-min Rain = 0
KSM2 250729Z 17006KT 20/15 A2998 RMK A01 T02030146  RH  070%=      5-min Rain = 0
KSM2 250730Z 17007KT 20/15 A2998 RMK A01 T02030146  RH  070%=      5-min Rain = 0
KSM2 250731Z 16007KT 20/15 A2998 RMK A01 T02030145  RH  069%=      5-min Rain = 0
KSM2 250732Z 17008KT 20/14 A2998 RMK A01 T02030144  RH  069%=      5-min Rain = 0
KSM2 250733Z 16006KT 20/14 A2998 RMK A01 T02030144  RH  069%=      5-min Rain = 0
KSM2 250734Z 17007KT 20/14 A2998 RMK A01 T02020144  RH  069%=      5-min Rain = 0
KSM2 250735Z 16007KT 20/14 A2998 RMK A01 T02030143  RH  069%=      5-min Rain = 0
KSM2 250736Z 17007KT 20/14 A2998 RMK A01 T02030143  RH  068%=      5-min Rain = 0
KSM2 250737Z 17007KT 20/14 A2998 RMK A01 T02020142  RH  068%=      5-min Rain = 0
KSM2 250738Z 17007KT 20/14 A2998 RMK A01 T02020143  RH  069%=      5-min Rain = 0
KSM2 250739Z 18006KT 20/14 A2998 RMK A01 T02010143  RH  069%=      5-min Rain = 0
KSM2 250740Z 18006KT 20/14 A2998 RMK A01 T02010143  RH  069%=      5-min Rain = 0
KSM2 250741Z 18006KT 20/14 A2998 RMK A01 T02000143  RH  069%=      5-min Rain = 0
KSM2 250742Z 18007KT 20/14 A2998 RMK A01 T02000144  RH  070%=      5-min Rain = 0
KSM2 250743Z 18006KT 20/14 A2998 RMK A01 T01990144  RH  070%=      5-min Rain = 0
KSM2 250744Z 18006KT 20/15 A2998 RMK A01 T01990145  RH  071%=      5-min Rain = 0
KSM2 250745Z 18006KT 20/15 A2998 RMK A01 T01980145  RH  072%=      5-min Rain = 0
KSM2 250746Z 18006KT 20/14 A2998 RMK A01 T01970144  RH  072%=      5-min Rain = 0
KSM2 250747Z 18006KT 20/14 A2998 RMK A01 T01960144  RH  071%=      5-min Rain = 0
KSM2 250748Z 18008KT 20/14 A2998 RMK A01 T01960142  RH  071%=      5-min Rain = 0
KSM2 250749Z 17008KT 20/14 A2998 RMK A01 T01960141  RH  070%=      5-min Rain = 0
KSM2 250750Z 17007KT 20/14 A2998 RMK A01 T01970140  RH  070%=      5-min Rain = 0
KSM2 250751Z 17007KT 20/14 A2998 RMK A01 T01960139  RH  070%=      5-min Rain = 0
KSM2 250752Z 18008KT 20/14 A2998 RMK A01 T01970139  RH  069%=      5-min Rain = 0
KSM2 250753Z 18008KT 20/14 A2998 RMK A01 T01970138  RH  069%=      5-min Rain = 0
KSM2 250754Z 18007KT 20/14 A2998 RMK A01 T01970138  RH  069%=      5-min Rain = 0
KSM2 250755Z 17006KT 20/14 A2998 RMK A01 T01970138  RH  069%=      5-min Rain = 0
KSM2 250756Z 18007KT 20/14 A2998 RMK A01 T01960139  RH  069%=      5-min Rain = 0
KSM2 250757Z 17006KT 20/14 A2998 RMK A01 T01960138  RH  069%=      5-min Rain = 0
KSM2 250758Z 17007KT 20/14 A2998 RMK A01 T01950138  RH  070%=      5-min Rain = 0
KSM2 250759Z 17006KT 20/14 A2998 RMK A01 T01950138  RH  070%=      5-min Rain = 0
KSM2 250800Z 17006KT 20/14 A2998 RMK A01 T01950138  RH  070%=      5-min Rain = 0
KSM2 250801Z 17006KT 19/14 A2998 RMK A01 T01940138  RH  070%=      5-min Rain = 0
KSM2 250802Z 17007KT 19/14 A2998 RMK A01 T01940138  RH  070%=      5-min Rain = 0
KSM2 250803Z 17006KT 19/14 A2998 RMK A01 T01940138  RH  070%=      5-min Rain = 0
KSM2 250804Z 17005KT 19/14 A2998 RMK A01 T01940138  RH  070%=      5-min Rain = 0
KSM2 250805Z 17006KT 19/14 A2998 RMK A01 T01940137  RH  070%=      5-min Rain = 0
KSM2 250806Z 16007KT 19/14 A2998 RMK A01 T01940137  RH  069%=      5-min Rain = 0
KSM2 250807Z 16008KT 19/14 A2998 RMK A01 T01940136  RH  069%=      5-min Rain = 0
KSM2 250808Z 16007KT 19/14 A2998 RMK A01 T01940136  RH  069%=      5-min Rain = 0
KSM2 250809Z 16006KT 19/14 A2998 RMK A01 T01940136  RH  069%=      5-min Rain = 0
KSM2 250810Z 16006KT 19/14 A2998 RMK A01 T01940136  RH  069%=      5-min Rain = 0
KSM2 250811Z 16006KT 19/14 A2998 RMK A01 T01940135  RH  069%=      5-min Rain = 0
KSM2 250812Z 16006KT 19/14 A2998 RMK A01 T01940135  RH  069%=      5-min Rain = 0
KSM2 250813Z 16006KT 19/14 A2998 RMK A01 T01930135  RH  069%=      5-min Rain = 0
KSM2 250814Z 16006KT 19/14 A2998 RMK A01 T01930135  RH  069%=      5-min Rain = 0
KSM2 250815Z 17006KT 19/14 A2998 RMK A01 T01930135  RH  069%=      5-min Rain = 0
KSM2 250816Z 16006KT 19/14 A2998 RMK A01 T01920135  RH  070%=      5-min Rain = 0
KSM2 250817Z 17006KT 19/14 A2998 RMK A01 T01920135  RH  070%=      5-min Rain = 0
KSM2 250818Z 16005KT 19/14 A2998 RMK A01 T01910135  RH  070%=      5-min Rain = 0
KSM2 250819Z 16006KT 19/14 A2998 RMK A01 T01910135  RH  070%=      5-min Rain = 0
KSM2 250820Z 16006KT 19/14 A2998 RMK A01 T01910135  RH  070%=      5-min Rain = 0
KSM2 250821Z 17006KT 19/14 A2998 RMK A01 T01910135  RH  070%=      5-min Rain = 0
KSM2 250822Z 17006KT 19/14 A2998 RMK A01 T01910135  RH  070%=      5-min Rain = 0
KSM2 250823Z 16006KT 19/14 A2998 RMK A01 T01910135  RH  070%=      5-min Rain = 0
KSM2 250824Z 16007KT 19/14 A2998 RMK A01 T01900135  RH  070%=      5-min Rain = 0
KSM2 250825Z 17006KT 19/13 A2998 RMK A01 T01900134  RH  070%=      5-min Rain = 0
KSM2 250826Z 17006KT 19/13 A2998 RMK A01 T01900134  RH  070%=      5-min Rain = 0
KSM2 250827Z 17006KT 19/14 A2998 RMK A01 T01900135  RH  070%=      5-min Rain = 0
KSM2 250828Z 17006KT 19/13 A2998 RMK A01 T01890134  RH  070%=      5-min Rain = 0
KSM2 250829Z 18005KT 19/13 A2998 RMK A01 T01890134  RH  070%=      5-min Rain = 0
KSM2 250830Z 18007KT 19/13 A2997 RMK A01 T01890134  RH  070%=      5-min Rain = 0
KSM2 250831Z 18007KT 19/13 A2997 RMK A01 T01890134  RH  071%=      5-min Rain = 0
KSM2 250832Z 18006KT 19/13 A2997 RMK A01 T01890134  RH  071%=      5-min Rain = 0
KSM2 250833Z 18007KT 19/14 A2997 RMK A01 T01880135  RH  071%=      5-min Rain = 0
KSM2 250834Z 17006KT 19/13 A2997 RMK A01 T01880134  RH  071%=      5-min Rain = 0
KSM2 250835Z 17006KT 19/13 A2997 RMK A01 T01880134  RH  071%=      5-min Rain = 0
KSM2 250836Z 18006KT 19/13 A2997 RMK A01 T01880134  RH  071%=      5-min Rain = 0
KSM2 250837Z 19005KT 19/13 A2997 RMK A01 T01880134  RH  071%=      5-min Rain = 0
KSM2 250838Z 18005KT 19/13 A2997 RMK A01 T01870134  RH  072%=      5-min Rain = 0
KSM2 250839Z 18005KT 19/14 A2997 RMK A01 T01860135  RH  072%=      5-min Rain = 0
KSM2 250840Z 19006KT 19/14 A2997 RMK A01 T01860135  RH  072%=      5-min Rain = 0
KSM2 250841Z 18005KT 19/14 A2997 RMK A01 T01850135  RH  073%=      5-min Rain = 0
KSM2 250842Z 18004KT 18/14 A2997 RMK A01 T01840135  RH  073%=      5-min Rain = 0
KSM2 250843Z 18005KT 18/14 A2997 RMK A01 T01830135  RH  073%=      5-min Rain = 0
KSM2 250844Z 18004KT 18/14 A2997 RMK A01 T01830136  RH  074%=      5-min Rain = 0
KSM2 250845Z 17004KT 18/14 A2997 RMK A01 T01820136  RH  074%=      5-min Rain = 0
KSM2 250846Z 17004KT 18/14 A2997 RMK A01 T01820136  RH  074%=      5-min Rain = 0
KSM2 250847Z 17005KT 18/14 A2997 RMK A01 T01820136  RH  074%=      5-min Rain = 0
KSM2 250848Z 18005KT 18/14 A2997 RMK A01 T01820135  RH  074%=      5-min Rain = 0
KSM2 250849Z 18004KT 18/14 A2997 RMK A01 T01820135  RH  074%=      5-min Rain = 0
KSM2 250850Z 18005KT 18/14 A2997 RMK A01 T01820136  RH  074%=      5-min Rain = 0
KSM2 250851Z 19005KT 18/14 A2997 RMK A01 T01820135  RH  074%=      5-min Rain = 0
KSM2 250852Z 19005KT 18/14 A2997 RMK A01 T01820135  RH  074%=      5-min Rain = 0
KSM2 250853Z 18005KT 18/14 A2997 RMK A01 T01820136  RH  074%=      5-min Rain = 0
KSM2 250854Z 18007KT 18/14 A2998 RMK A01 T01810135  RH  075%=      5-min Rain = 0
KSM2 250855Z 19005KT 18/14 A2998 RMK A01 T01810136  RH  075%=      5-min Rain = 0
KSM2 250856Z 19006KT 18/14 A2998 RMK A01 T01800136  RH  075%=      5-min Rain = 0
KSM2 250857Z 18006KT 18/14 A2998 RMK A01 T01800136  RH  076%=      5-min Rain = 0
KSM2 250858Z 19006KT 18/14 A2998 RMK A01 T01790136  RH  076%=      5-min Rain = 0
KSM2 250859Z 18006KT 18/14 A2998 RMK A01 T01790136  RH  076%=      5-min Rain = 0
KSM2 250900Z 18007KT 18/14 A2998 RMK A01 T01790136  RH  076%=      5-min Rain = 0
KSM2 250901Z 18008KT 18/14 A2998 RMK A01 T01790135  RH  076%=      5-min Rain = 0
KSM2 250902Z 18007KT 18/14 A2998 RMK A01 T01800135  RH  075%=      5-min Rain = 0
KSM2 250903Z 18007KT 18/14 A2998 RMK A01 T01810135  RH  075%=      5-min Rain = 0
KSM2 250904Z 18007KT 18/14 A2998 RMK A01 T01810135  RH  074%=      5-min Rain = 0
KSM2 250905Z 18006KT 18/14 A2998 RMK A01 T01810135  RH  075%=      5-min Rain = 0
KSM2 250906Z 18007KT 18/14 A2998 RMK A01 T01800135  RH  075%=      5-min Rain = 0
KSM2 250907Z 18007KT 18/14 A2998 RMK A01 T01800135  RH  075%=      5-min Rain = 0
KSM2 250908Z 18006KT 18/13 A2998 RMK A01 T01790134  RH  075%=      5-min Rain = 0
KSM2 250909Z 18006KT 18/13 A2998 RMK A01 T01780134  RH  075%=      5-min Rain = 0
KSM2 250910Z 19006KT 18/13 A2998 RMK A01 T01780134  RH  076%=      5-min Rain = 0
KSM2 250911Z 18007KT 18/13 A2998 RMK A01 T01770134  RH  076%=      5-min Rain = 0
KSM2 250912Z 18007KT 18/13 A2998 RMK A01 T01770134  RH  076%=      5-min Rain = 0
KSM2 250913Z 19008KT 18/13 A2998 RMK A01 T01780134  RH  075%=      5-min Rain = 0
KSM2 250914Z 19008KT 18/13 A2998 RMK A01 T01780134  RH  075%=      5-min Rain = 0
KSM2 250915Z 19008KT 18/13 A2998 RMK A01 T01780133  RH  075%=      5-min Rain = 0
KSM2 250916Z 19008KT 18/13 A2998 RMK A01 T01780134  RH  075%=      5-min Rain = 0
KSM2 250917Z 19008KT 18/13 A2998 RMK A01 T01780133  RH  075%=      5-min Rain = 0
KSM2 250918Z 18008KT 18/13 A2998 RMK A01 T01780133  RH  075%=      5-min Rain = 0
KSM2 250919Z 19007KT 18/13 A2998 RMK A01 T01780133  RH  075%=      5-min Rain = 0
KSM2 250920Z 19009KT 18/13 A2998 RMK A01 T01790133  RH  074%=      5-min Rain = 0
KSM2 250921Z 18008KT 18/13 A2998 RMK A01 T01800133  RH  074%=      5-min Rain = 0
KSM2 250922Z 18008KT 18/13 A2998 RMK A01 T01800133  RH  074%=      5-min Rain = 0
KSM2 250923Z 18009KT 18/13 A2998 RMK A01 T01800133  RH  074%=      5-min Rain = 0
KSM2 250924Z 19008KT 18/13 A2998 RMK A01 T01800133  RH  074%=      5-min Rain = 0
KSM2 250925Z 19008KT 18/13 A2998 RMK A01 T01800132  RH  074%=      5-min Rain = 0
KSM2 250926Z 18008KT 18/13 A2998 RMK A01 T01800132  RH  073%=      5-min Rain = 0
KSM2 250927Z 18008KT 18/13 A2998 RMK A01 T01800132  RH  073%=      5-min Rain = 0
KSM2 250928Z 18009KT 18/13 A2998 RMK A01 T01800132  RH  073%=      5-min Rain = 0
KSM2 250929Z 18008KT 18/13 A2998 RMK A01 T01810132  RH  073%=      5-min Rain = 0
KSM2 250930Z 19008KT 18/13 A2998 RMK A01 T01810132  RH  073%=      5-min Rain = 0
KSM2 250931Z 19009KT 18/13 A2998 RMK A01 T01810132  RH  073%=      5-min Rain = 0
KSM2 250932Z 18009KT 18/13 A2998 RMK A01 T01810132  RH  073%=      5-min Rain = 0
KSM2 250933Z 19008KT 18/13 A2998 RMK A01 T01810132  RH  073%=      5-min Rain = 0
KSM2 250934Z 19010KT 18/13 A2998 RMK A01 T01810132  RH  073%=      5-min Rain = 0
KSM2 250935Z 18009KT 18/13 A2998 RMK A01 T01810132  RH  073%=      5-min Rain = 0
KSM2 250936Z 18008KT 18/13 A2998 RMK A01 T01810132  RH  073%=      5-min Rain = 0
KSM2 250937Z 19009KT 18/13 A2998 RMK A01 T01810132  RH  073%=      5-min Rain = 0
KSM2 250938Z 19009KT 18/13 A2998 RMK A01 T01800132  RH  073%=      5-min Rain = 0
KSM2 250939Z 19008KT 18/13 A2998 RMK A01 T01800133  RH  074%=      5-min Rain = 0
KSM2 250940Z 19008KT 18/13 A2998 RMK A01 T01790133  RH  074%=      5-min Rain = 0
KSM2 250941Z 19009KT 18/13 A2999 RMK A01 T01790133  RH  074%=      5-min Rain = 0
KSM2 250942Z 19009KT 18/13 A2999 RMK A01 T01780132  RH  074%=      5-min Rain = 0
KSM2 250943Z 19009KT 18/13 A2999 RMK A01 T01780133  RH  074%=      5-min Rain = 0
KSM2 250944Z 19010KT 18/13 A2999 RMK A01 T01790133  RH  075%=      5-min Rain = 0
KSM2 250945Z 19009KT 18/13 A2999 RMK A01 T01780133  RH  075%=      5-min Rain = 0
KSM2 250946Z 19009KT 18/13 A2999 RMK A01 T01780133  RH  075%=      5-min Rain = 0
KSM2 250947Z 19009KT 18/13 A2999 RMK A01 T01780133  RH  075%=      5-min Rain = 0
KSM2 250948Z 19009KT 18/13 A2999 RMK A01 T01780133  RH  075%=      5-min Rain = 0
KSM2 250949Z 19010KT 18/13 A2999 RMK A01 T01770133  RH  075%=      5-min Rain = 0
KSM2 250950Z 19010KT 18/13 A2999 RMK A01 T01770133  RH  075%=      5-min Rain = 0
KSM2 250951Z 19008KT 18/13 A2999 RMK A01 T01770132  RH  075%=      5-min Rain = 0
KSM2 250952Z 19009KT 18/13 A2999 RMK A01 T01780133  RH  075%=      5-min Rain = 0
KSM2 250953Z 19010KT 18/13 A2999 RMK A01 T01770132  RH  075%=      5-min Rain = 0
KSM2 250954Z 20010KT 18/13 A2999 RMK A01 T01770132  RH  075%=      5-min Rain = 0
KSM2 250955Z 20010KT 18/13 A2999 RMK A01 T01770132  RH  075%=      5-min Rain = 0
KSM2 250956Z 19010KT 18/13 A2999 RMK A01 T01770132  RH  075%=      5-min Rain = 0
KSM2 250957Z 19010KT 18/13 A2999 RMK A01 T01770133  RH  075%=      5-min Rain = 0
KSM2 250958Z 19010KT 18/13 A2999 RMK A01 T01770132  RH  075%=      5-min Rain = 0
KSM2 250959Z 19009KT 18/13 A2999 RMK A01 T01770133  RH  075%=      5-min Rain = 0
KSM2 251000Z 19009KT 18/13 A2999 RMK A01 T01770132  RH  075%=      5-min Rain = 0
KSM2 251001Z 20010KT 18/13 A2999 RMK A01 T01760132  RH  075%=      5-min Rain = 0
KSM2 251002Z 19009KT 18/13 A2999 RMK A01 T01770132  RH  075%=      5-min Rain = 0
KSM2 251003Z 20009KT 18/13 A2999 RMK A01 T01770132  RH  075%=      5-min Rain = 0
KSM2 251004Z 20009KT 18/13 A2999 RMK A01 T01770132  RH  075%=      5-min Rain = 0
KSM2 251005Z 20009KT 18/13 A2999 RMK A01 T01770132  RH  075%=      5-min Rain = 0
KSM2 251006Z 19008KT 18/13 A2999 RMK A01 T01770133  RH  075%=      5-min Rain = 0
KSM2 251007Z 20008KT 18/13 A2999 RMK A01 T01760133  RH  075%=      5-min Rain = 0
KSM2 251008Z 20008KT 18/13 A2999 RMK A01 T01760133  RH  076%=      5-min Rain = 0
KSM2 251009Z 20007KT 18/13 A2999 RMK A01 T01760133  RH  076%=      5-min Rain = 0
KSM2 251010Z 21009KT 18/13 A2999 RMK A01 T01760133  RH  076%=      5-min Rain = 0
KSM2 251011Z 21009KT 18/13 A2999 RMK A01 T01760132  RH  075%=      5-min Rain = 0
KSM2 251012Z 21009KT 18/13 A2999 RMK A01 T01770133  RH  075%=      5-min Rain = 0
KSM2 251013Z 20009KT 18/13 A2999 RMK A01 T01780133  RH  075%=      5-min Rain = 0
KSM2 251014Z 20009KT 18/13 A2999 RMK A01 T01770133  RH  075%=      5-min Rain = 0
KSM2 251015Z 20008KT 18/13 A2999 RMK A01 T01780133  RH  075%=      5-min Rain = 0
KSM2 251016Z 21008KT 18/13 A2999 RMK A01 T01780133  RH  075%=      5-min Rain = 0
KSM2 251017Z 21009KT 18/13 A2999 RMK A01 T01780133  RH  075%=      5-min Rain = 0
KSM2 251018Z 21009KT 18/13 A2999 RMK A01 T01780133  RH  075%=      5-min Rain = 0
KSM2 251019Z 21007KT 18/13 A2999 RMK A01 T01770133  RH  075%=      5-min Rain = 0
KSM2 251020Z 21008KT 18/13 A2999 RMK A01 T01770133  RH  076%=      5-min Rain = 0
KSM2 251021Z 21008KT 18/13 A2999 RMK A01 T01760133  RH  076%=      5-min Rain = 0
KSM2 251022Z 21008KT 18/13 A2999 RMK A01 T01770133  RH  076%=      5-min Rain = 0
KSM2 251023Z 21008KT 18/13 A2999 RMK A01 T01760133  RH  076%=      5-min Rain = 0
KSM2 251024Z 21008KT 18/13 A2999 RMK A01 T01770133  RH  076%=      5-min Rain = 0
KSM2 251025Z 21008KT 18/13 A2999 RMK A01 T01770133  RH  076%=      5-min Rain = 0
KSM2 251026Z 21008KT 18/13 A2999 RMK A01 T01760133  RH  076%=      5-min Rain = 0
KSM2 251027Z 21008KT 18/13 A2999 RMK A01 T01760133  RH  076%=      5-min Rain = 0
KSM2 251028Z 21008KT 18/13 A2999 RMK A01 T01770133  RH  076%=      5-min Rain = 0
KSM2 251029Z 21009KT 18/13 A2999 RMK A01 T01770133  RH  076%=      5-min Rain = 0
KSM2 251030Z 21009KT 18/13 A2999 RMK A01 T01770133  RH  076%=      5-min Rain = 0
KSM2 251031Z 21008KT 18/13 A2999 RMK A01 T01770133  RH  076%=      5-min Rain = 0
KSM2 251032Z 21008KT 18/13 A2999 RMK A01 T01770133  RH  076%=      5-min Rain = 0
KSM2 251033Z 21007KT 18/13 A2999 RMK A01 T01770133  RH  076%=      5-min Rain = 0
KSM2 251034Z 21007KT 18/13 A2999 RMK A01 T01760133  RH  076%=      5-min Rain = 0
KSM2 251035Z 21008KT 18/13 A2999 RMK A01 T01760133  RH  076%=      5-min Rain = 0
KSM2 251036Z 21007KT 18/13 A2999 RMK A01 T01760133  RH  076%=      5-min Rain = 0
KSM2 251037Z 21007KT 18/13 A2999 RMK A01 T01760133  RH  076%=      5-min Rain = 0
KSM2 251038Z 22007KT 18/13 A2999 RMK A01 T01750133  RH  076%=      5-min Rain = 0
KSM2 251039Z 22007KT 17/13 A2999 RMK A01 T01740133  RH  076%=      5-min Rain = 0
KSM2 251040Z 22006KT 17/13 A2999 RMK A01 T01740133  RH  077%=      5-min Rain = 0
KSM2 251041Z 22007KT 17/13 A2999 RMK A01 T01730133  RH  077%=      5-min Rain = 0
KSM2 251042Z 21007KT 17/13 A2999 RMK A01 T01730133  RH  077%=      5-min Rain = 0
KSM2 251043Z 22007KT 17/13 A2999 RMK A01 T01730133  RH  077%=      5-min Rain = 0
KSM2 251044Z 22007KT 17/13 A2999 RMK A01 T01730133  RH  077%=      5-min Rain = 0
KSM2 251045Z 21007KT 17/13 A2999 RMK A01 T01740132  RH  077%=      5-min Rain = 0
KSM2 251046Z 22007KT 17/13 A2999 RMK A01 T01740133  RH  077%=      5-min Rain = 0
KSM2 251047Z 22007KT 17/13 A30 RMK A01 T01740132  RH  077%=      5-min Rain = 0
KSM2 251048Z 22006KT 17/13 A30 RMK A01 T01740133  RH  077%=      5-min Rain = 0
KSM2 251049Z 22006KT 17/13 A30 RMK A01 T01730133  RH  077%=      5-min Rain = 0
KSM2 251050Z 22007KT 17/13 A30 RMK A01 T01730133  RH  077%=      5-min Rain = 0
KSM2 251051Z 22006KT 17/13 A30 RMK A01 T01730133  RH  077%=      5-min Rain = 0
KSM2 251052Z 22006KT 17/13 A30 RMK A01 T01730132  RH  077%=      5-min Rain = 0
KSM2 251053Z 23005KT 17/13 A30 RMK A01 T01720132  RH  077%=      5-min Rain = 0
KSM2 251054Z 22006KT 17/13 A30 RMK A01 T01730133  RH  077%=      5-min Rain = 0
KSM2 251055Z 22007KT 17/13 A30 RMK A01 T01720132  RH  077%=      5-min Rain = 0
KSM2 251056Z 23006KT 17/13 A30 RMK A01 T01720132  RH  077%=      5-min Rain = 0
KSM2 251057Z 22006KT 17/13 A30 RMK A01 T01720132  RH  077%=      5-min Rain = 0
KSM2 251058Z 23006KT 17/13 A30 RMK A01 T01720132  RH  077%=      5-min Rain = 0
KSM2 251059Z 23006KT 17/13 A30 RMK A01 T01720132  RH  077%=      5-min Rain = 0
KSM2 251100Z 23005KT 17/13 A30 RMK A01 T01720132  RH  078%=      5-min Rain = 0
KSM2 251101Z 23005KT 17/13 A30 RMK A01 T01710132  RH  078%=      5-min Rain = 0
KSM2 251102Z 22005KT 17/13 A30 RMK A01 T01710133  RH  078%=      5-min Rain = 0
KSM2 251103Z 23006KT 17/13 A30 RMK A01 T01710132  RH  078%=      5-min Rain = 0
KSM2 251104Z 22006KT 17/13 A30 RMK A01 T01710132  RH  078%=      5-min Rain = 0
KSM2 251105Z 22005KT 17/13 A30 RMK A01 T01710133  RH  078%=      5-min Rain = 0
KSM2 251106Z 23006KT 17/13 A30 RMK A01 T01710133  RH  078%=      5-min Rain = 0
KSM2 251107Z 22006KT 17/13 A30 RMK A01 T01710133  RH  078%=      5-min Rain = 0
KSM2 251108Z 22005KT 17/13 A30 RMK A01 T01710133  RH  078%=      5-min Rain = 0
KSM2 251109Z 22006KT 17/13 A30 RMK A01 T01710133  RH  078%=      5-min Rain = 0
KSM2 251110Z 22005KT 17/13 A30 RMK A01 T01710133  RH  078%=      5-min Rain = 0
KSM2 251111Z 22006KT 17/13 A30 RMK A01 T01710133  RH  078%=      5-min Rain = 0
KSM2 251112Z 22006KT 17/13 A30 RMK A01 T01710133  RH  078%=      5-min Rain = 0
KSM2 251113Z 22006KT 17/13 A30 RMK A01 T01710133  RH  078%=      5-min Rain = 0
KSM2 251114Z 21005KT 17/13 A30 RMK A01 T01710133  RH  079%=      5-min Rain = 0
KSM2 251115Z 22005KT 17/13 A30 RMK A01 T01700133  RH  079%=      5-min Rain = 0
KSM2 251116Z 21005KT 17/13 A30 RMK A01 T01700133  RH  079%=      5-min Rain = 0
KSM2 251117Z 21005KT 17/13 A30 RMK A01 T01700133  RH  079%=      5-min Rain = 0
KSM2 251118Z 21005KT 17/13 A30 RMK A01 T01700133  RH  079%=      5-min Rain = 0
KSM2 251119Z 22004KT 17/13 A30 RMK A01 T01700133  RH  079%=      5-min Rain = 0
KSM2 251120Z 21005KT 17/13 A3001 RMK A01 T01700133  RH  079%=      5-min Rain = 0
KSM2 251121Z 21006KT 17/13 A3001 RMK A01 T01700133  RH  079%=      5-min Rain = 0
KSM2 251122Z 22005KT 17/13 A3001 RMK A01 T01700133  RH  079%=      5-min Rain = 0
KSM2 251123Z 22005KT 17/13 A3001 RMK A01 T01700133  RH  079%=      5-min Rain = 0
KSM2 251124Z 22005KT 17/13 A3001 RMK A01 T01700133  RH  079%=      5-min Rain = 0
KSM2 251125Z 22005KT 17/13 A3001 RMK A01 T01700133  RH  079%=      5-min Rain = 0
KSM2 251126Z 22005KT 17/13 A3001 RMK A01 T01700133  RH  079%=      5-min Rain = 0
KSM2 251127Z 23005KT 17/13 A3001 RMK A01 T01700133  RH  079%=      5-min Rain = 0
KSM2 251128Z 23006KT 17/13 A3001 RMK A01 T01690133  RH  079%=      5-min Rain = 0
KSM2 251129Z 23005KT 17/13 A3001 RMK A01 T01690133  RH  079%=      5-min Rain = 0
KSM2 251130Z 23006KT 17/13 A3001 RMK A01 T01700133  RH  079%=      5-min Rain = 0
KSM2 251131Z 23006KT 17/13 A3001 RMK A01 T01700133  RH  079%=      5-min Rain = 0
KSM2 251132Z 23006KT 17/13 A3001 RMK A01 T01700133  RH  079%=      5-min Rain = 0
KSM2 251133Z 23005KT 17/13 A3001 RMK A01 T01690133  RH  079%=      5-min Rain = 0
KSM2 251134Z 23005KT 17/13 A3001 RMK A01 T01680133  RH  080%=      5-min Rain = 0
KSM2 251135Z 23005KT 17/13 A3001 RMK A01 T01670133  RH  080%=      5-min Rain = 0
KSM2 251136Z 23004KT 17/13 A3001 RMK A01 T01670133  RH  080%=      5-min Rain = 0
KSM2 251137Z 23005KT 17/13 A3001 RMK A01 T01670133  RH  081%=      5-min Rain = 0
KSM2 251138Z 23005KT 17/13 A3001 RMK A01 T01670133  RH  081%=      5-min Rain = 0
KSM2 251139Z 23005KT 17/13 A3001 RMK A01 T01670133  RH  081%=      5-min Rain = 0
KSM2 251140Z 24005KT 17/13 A3001 RMK A01 T01670133  RH  081%=      5-min Rain = 0
KSM2 251141Z 24005KT 17/13 A3001 RMK A01 T01670133  RH  081%=      5-min Rain = 0
KSM2 251142Z 24005KT 17/13 A3001 RMK A01 T01660133  RH  081%=      5-min Rain = 0
KSM2 251143Z 24005KT 17/13 A3001 RMK A01 T01660133  RH  081%=      5-min Rain = 0
KSM2 251144Z 24004KT 17/13 A3001 RMK A01 T01660133  RH  081%=      5-min Rain = 0
KSM2 251145Z 24004KT 17/13 A3001 RMK A01 T01650133  RH  081%=      5-min Rain = 0
KSM2 251146Z 24004KT 17/13 A3001 RMK A01 T01650133  RH  081%=      5-min Rain = 0
KSM2 251147Z 24004KT 17/13 A3001 RMK A01 T01650133  RH  082%=      5-min Rain = 0
KSM2 251148Z 24005KT 16/13 A3001 RMK A01 T01640133  RH  082%=      5-min Rain = 0
KSM2 251149Z 24005KT 16/13 A3001 RMK A01 T01640133  RH  082%=      5-min Rain = 0
KSM2 251150Z 23005KT 16/13 A3001 RMK A01 T01640133  RH  082%=      5-min Rain = 0
KSM2 251151Z 23006KT 16/13 A3001 RMK A01 T01640133  RH  082%=      5-min Rain = 0
KSM2 251152Z 23006KT 17/13 A3001 RMK A01 T01650133  RH  082%=      5-min Rain = 0
KSM2 251153Z 22006KT 17/13 A3001 RMK A01 T01650133  RH  081%=      5-min Rain = 0
KSM2 251154Z 22006KT 16/13 A3001 RMK A01 T01640133  RH  082%=      5-min Rain = 0
KSM2 251155Z 22007KT 16/13 A3001 RMK A01 T01640133  RH  082%=      5-min Rain = 0
KSM2 251156Z 22007KT 17/13 A3001 RMK A01 T01650134  RH  082%=      5-min Rain = 0
KSM2 251157Z 22007KT 17/13 A3001 RMK A01 T01660134  RH  081%=      5-min Rain = 0
KSM2 251158Z 22008KT 17/13 A3001 RMK A01 T01680134  RH  080%=      5-min Rain = 0
KSM2 251159Z 22007KT 17/13 A3001 RMK A01 T01690134  RH  080%=      5-min Rain = 0
KSM2 251200Z 23007KT 17/13 A3001 RMK A01 T01690134  RH  080%=      5-min Rain = 0
KSM2 251201Z 22008KT 17/13 A3001 RMK A01 T01690134  RH  080%=      5-min Rain = 0
KSM2 251202Z 22008KT 17/13 A3001 RMK A01 T01700134  RH  080%=      5-min Rain = 0
KSM2 251203Z 22007KT 17/13 A3001 RMK A01 T01700134  RH  079%=      5-min Rain = 0
KSM2 251204Z 23008KT 17/13 A3001 RMK A01 T01700134  RH  079%=      5-min Rain = 0
KSM2 251205Z 22008KT 17/13 A3001 RMK A01 T01700134  RH  079%=      5-min Rain = 0
KSM2 251206Z 22008KT 17/13 A3001 RMK A01 T01710134  RH  079%=      5-min Rain = 0
KSM2 251207Z 22008KT 17/13 A3001 RMK A01 T01710134  RH  079%=      5-min Rain = 0
KSM2 251208Z 22007KT 17/13 A3001 RMK A01 T01710134  RH  079%=      5-min Rain = 0
KSM2 251209Z 22007KT 17/13 A3001 RMK A01 T01710134  RH  079%=      5-min Rain = 0
KSM2 251210Z 23007KT 17/13 A3001 RMK A01 T01710134  RH  079%=      5-min Rain = 0
KSM2 251211Z 23007KT 17/13 A3001 RMK A01 T01710134  RH  079%=      5-min Rain = 0
KSM2 251212Z 23008KT 17/13 A3001 RMK A01 T01710134  RH  079%=      5-min Rain = 0
KSM2 251213Z 23008KT 17/13 A3001 RMK A01 T01710134  RH  079%=      5-min Rain = 0
KSM2 251214Z 23008KT 17/13 A3001 RMK A01 T01710134  RH  079%=      5-min Rain = 0
KSM2 251215Z 23007KT 17/13 A3001 RMK A01 T01710134  RH  079%=      5-min Rain = 0
KSM2 251216Z 23008KT 17/13 A3001 RMK A01 T01720134  RH  078%=      5-min Rain = 0
KSM2 251217Z 23008KT 17/13 A3001 RMK A01 T01720134  RH  078%=      5-min Rain = 0
KSM2 251218Z 23008KT 17/13 A3001 RMK A01 T01730134  RH  078%=      5-min Rain = 0
KSM2 251219Z 22009KT 17/13 A3001 RMK A01 T01730134  RH  078%=      5-min Rain = 0
KSM2 251220Z 23008KT 17/14 A3001 RMK A01 T01740135  RH  078%=      5-min Rain = 0
KSM2 251221Z 23009KT 17/14 A3001 RMK A01 T01740135  RH  078%=      5-min Rain = 0
KSM2 251222Z 23008KT 17/13 A3001 RMK A01 T01740134  RH  077%=      5-min Rain = 0
KSM2 251223Z 23008KT 18/13 A3001 RMK A01 T01750134  RH  077%=      5-min Rain = 0
KSM2 251224Z 23008KT 18/13 A3001 RMK A01 T01760134  RH  076%=      5-min Rain = 0
KSM2 251225Z 23008KT 18/14 A3001 RMK A01 T01770135  RH  076%=      5-min Rain = 0
KSM2 251226Z 23008KT 18/14 A3001 RMK A01 T01770135  RH  076%=      5-min Rain = 0
KSM2 251227Z 23009KT 18/14 A3001 RMK A01 T01780135  RH  076%=      5-min Rain = 0
KSM2 251228Z 23008KT 18/13 A3002 RMK A01 T01790134  RH  075%=      5-min Rain = 0
KSM2 251229Z 23008KT 18/13 A3002 RMK A01 T01800134  RH  075%=      5-min Rain = 0
KSM2 251230Z 23009KT 18/13 A3002 RMK A01 T01800134  RH  074%=      5-min Rain = 0
KSM2 251231Z 23008KT 18/13 A3002 RMK A01 T01810134  RH  074%=      5-min Rain = 0
KSM2 251232Z 23008KT 18/14 A3002 RMK A01 T01820135  RH  074%=      5-min Rain = 0
KSM2 251233Z 23007KT 18/13 A3002 RMK A01 T01820134  RH  074%=      5-min Rain = 0
KSM2 251234Z 23008KT 18/13 A3002 RMK A01 T01830134  RH  073%=      5-min Rain = 0
KSM2 251235Z 23008KT 18/13 A3002 RMK A01 T01830134  RH  073%=      5-min Rain = 0
KSM2 251236Z 22008KT 18/13 A3002 RMK A01 T01840134  RH  073%=      5-min Rain = 0
KSM2 251237Z 22008KT 18/13 A3002 RMK A01 T01840134  RH  072%=      5-min Rain = 0
KSM2 251238Z 23007KT 19/13 A3002 RMK A01 T01850134  RH  072%=      5-min Rain = 0
KSM2 251239Z 23007KT 19/13 A3002 RMK A01 T01860133  RH  071%=      5-min Rain = 0
KSM2 251240Z 23008KT 19/13 A3002 RMK A01 T01870133  RH  071%=      5-min Rain = 0
KSM2 251241Z 23007KT 19/13 A3002 RMK A01 T01870133  RH  071%=      5-min Rain = 0
KSM2 251242Z 23007KT 19/13 A3002 RMK A01 T01880133  RH  071%=      5-min Rain = 0
KSM2 251243Z 23007KT 19/13 A3002 RMK A01 T01880133  RH  070%=      5-min Rain = 0
KSM2 251244Z 23006KT 19/13 A3003 RMK A01 T01890133  RH  070%=      5-min Rain = 0
KSM2 251245Z 23008KT 19/13 A3003 RMK A01 T01900133  RH  069%=      5-min Rain = 0
KSM2 251246Z 23007KT 19/13 A3003 RMK A01 T01910133  RH  069%=      5-min Rain = 0
KSM2 251247Z 24007KT 19/13 A3003 RMK A01 T01910133  RH  069%=      5-min Rain = 0
KSM2 251248Z 23006KT 19/13 A3003 RMK A01 T01920133  RH  069%=      5-min Rain = 0
KSM2 251249Z 23006KT 19/13 A3003 RMK A01 T01930134  RH  069%=      5-min Rain = 0
KSM2 251250Z 23006KT 19/13 A3003 RMK A01 T01940133  RH  068%=      5-min Rain = 0
KSM2 251251Z 24006KT 19/13 A3003 RMK A01 T01940134  RH  068%=      5-min Rain = 0
KSM2 251252Z 23007KT 20/13 A3003 RMK A01 T01950133  RH  067%=      5-min Rain = 0
KSM2 251253Z 23006KT 20/13 A3003 RMK A01 T01950133  RH  067%=      5-min Rain = 0
KSM2 251254Z 23006KT 20/13 A3003 RMK A01 T01960134  RH  067%=      5-min Rain = 0
KSM2 251255Z 23007KT 20/13 A3003 RMK A01 T01960132  RH  067%=      5-min Rain = 0
KSM2 251256Z 23006KT 20/13 A3003 RMK A01 T01970132  RH  066%=      5-min Rain = 0
KSM2 251257Z 23007KT 20/13 A3003 RMK A01 T01970133  RH  066%=      5-min Rain = 0
KSM2 251258Z 23007KT 20/13 A3003 RMK A01 T01980133  RH  066%=      5-min Rain = 0
KSM2 251259Z 23005KT 20/13 A3003 RMK A01 T01990134  RH  066%=      5-min Rain = 0
KSM2 251300Z 23007KT 20/13 A3003 RMK A01 T02000133  RH  065%=      5-min Rain = 0
KSM2 251301Z 23005KT 20/13 A3003 RMK A01 T02000133  RH  065%=      5-min Rain = 0
KSM2 251302Z 22007KT 20/13 A3003 RMK A01 T02010134  RH  065%=      5-min Rain = 0
KSM2 251303Z 21007KT 20/13 A3003 RMK A01 T02010133  RH  065%=      5-min Rain = 0
KSM2 251304Z 22007KT 20/13 A3003 RMK A01 T02020134  RH  065%=      5-min Rain = 0
KSM2 251305Z 21007KT 20/13 A3004 RMK A01 T02030134  RH  065%=      5-min Rain = 0
KSM2 251306Z 21007KT 20/13 A3004 RMK A01 T02030134  RH  064%=      5-min Rain = 0
KSM2 251307Z 22007KT 20/13 A3004 RMK A01 T02040133  RH  064%=      5-min Rain = 0
KSM2 251308Z 21008KT 20/13 A3004 RMK A01 T02040133  RH  064%=      5-min Rain = 0
KSM2 251309Z 22010KT 20/13 A3004 RMK A01 T02040133  RH  063%=      5-min Rain = 0
KSM2 251310Z 22009KT 21/13 A3004 RMK A01 T02050133  RH  063%=      5-min Rain = 0
KSM2 251311Z 21009KT 21/13 A3004 RMK A01 T02050132  RH  063%=      5-min Rain = 0
KSM2 251312Z 22010KT 21/13 A3003 RMK A01 T02050132  RH  063%=      5-min Rain = 0
KSM2 251313Z 22009KT 21/13 A3003 RMK A01 T02050132  RH  063%=      5-min Rain = 0
KSM2 251314Z 21011KT 21/13 A3003 RMK A01 T02050132  RH  063%=      5-min Rain = 0
KSM2 251315Z 21011KT 21/13 A3003 RMK A01 T02050132  RH  063%=      5-min Rain = 0
KSM2 251316Z 22009KT 21/13 A3003 RMK A01 T02050132  RH  063%=      5-min Rain = 0
KSM2 251317Z 22008KT 21/13 A3003 RMK A01 T02050133  RH  063%=      5-min Rain = 0
KSM2 251318Z 22009KT 21/13 A3003 RMK A01 T02060134  RH  063%=      5-min Rain = 0
KSM2 251319Z 21011KT 21/13 A3003 RMK A01 T02070133  RH  063%=      5-min Rain = 0
KSM2 251320Z 22010KT 21/13 A3003 RMK A01 T02070133  RH  063%=      5-min Rain = 0
KSM2 251321Z 22012KT 21/13 A3003 RMK A01 T02070132  RH  062%=      5-min Rain = 0
KSM2 251322Z 22009KT 21/13 A3003 RMK A01 T02070132  RH  062%=      5-min Rain = 0
KSM2 251323Z 22009KT 21/13 A3003 RMK A01 T02080133  RH  062%=      5-min Rain = 0
KSM2 251324Z 22011KT 21/13 A3003 RMK A01 T02080132  RH  062%=      5-min Rain = 0
KSM2 251325Z 23009KT 21/13 A3003 RMK A01 T02090134  RH  062%=      5-min Rain = 0
KSM2 251326Z 23010KT 21/13 A3003 RMK A01 T02100134  RH  062%=      5-min Rain = 0
KSM2 251327Z 23012KT 21/13 A3003 RMK A01 T02110133  RH  061%=      5-min Rain = 0
KSM2 251328Z 23013KT 21/13 A3003 RMK A01 T02110132  RH  061%=      5-min Rain = 0
KSM2 251329Z 22010KT 21/13 A3003 RMK A01 T02110133  RH  061%=      5-min Rain = 0
KSM2 251330Z 22009KT 21/13 A3004 RMK A01 T02110134  RH  061%=      5-min Rain = 0
KSM2 251331Z 22010KT 21/14 A3004 RMK A01 T02120135  RH  061%=      5-min Rain = 0
KSM2 251332Z 22009KT 21/14 A3004 RMK A01 T02120135  RH  061%=      5-min Rain = 0
KSM2 251333Z 22009KT 21/14 A3004 RMK A01 T02130137  RH  062%=      5-min Rain = 0
KSM2 251334Z 23012KT 21/14 A3004 RMK A01 T02140136  RH  061%=      5-min Rain = 0
KSM2 251335Z 22010KT 21/14 A3004 RMK A01 T02130136  RH  061%=      5-min Rain = 0
KSM2 251336Z 23010KT 21/14 A3004 RMK A01 T02140137  RH  062%=      5-min Rain = 0
KSM2 251337Z 23012KT 21/14 A3004 RMK A01 T02140137  RH  061%=      5-min Rain = 0
KSM2 251338Z 22011KT 22/14 A3004 RMK A01 T02150137  RH  061%=      5-min Rain = 0
KSM2 251339Z 22012KT 22/14 A3004 RMK A01 T02150138  RH  062%=      5-min Rain = 0
KSM2 251340Z 23010KT 22/14 A3004 RMK A01 T02150139  RH  062%=      5-min Rain = 0
KSM2 251341Z 23009KT 22/14 A3004 RMK A01 T02160140  RH  062%=      5-min Rain = 0
KSM2 251342Z 22012KT 22/14 A3004 RMK A01 T02170140  RH  062%=      5-min Rain = 0
KSM2 251343Z 23011KT 22/14 A3004 RMK A01 T02170141  RH  062%=      5-min Rain = 0
KSM2 251344Z 22010KT 22/14 A3004 RMK A01 T02170142  RH  062%=      5-min Rain = 0
KSM2 251345Z 22010KT 22/14 A3004 RMK A01 T02180143  RH  062%=      5-min Rain = 0
KSM2 251346Z 22012KT 22/14 A3004 RMK A01 T02190143  RH  062%=      5-min Rain = 0
KSM2 251347Z 22012KT 22/14 A3004 RMK A01 T02190144  RH  062%=      5-min Rain = 0
KSM2 251348Z 22012KT 22/14 A3004 RMK A01 T02190144  RH  062%=      5-min Rain = 0
KSM2 251349Z 22010KT 22/14 A3004 RMK A01 T02190143  RH  062%=      5-min Rain = 0
KSM2 251350Z 22012KT 22/14 A3004 RMK A01 T02200144  RH  062%=      5-min Rain = 0
KSM2 251351Z 21011KT 22/15 A3004 RMK A01 T02200145  RH  062%=      5-min Rain = 0
KSM2 251352Z 21010KT 22/15 A3004 RMK A01 T02210147  RH  063%=      5-min Rain = 0
KSM2 251353Z 22012KT 22/15 A3004 RMK A01 T02220147  RH  062%=      5-min Rain = 0
KSM2 251354Z 22013KT 22/15 A3004 RMK A01 T02230148  RH  062%=      5-min Rain = 0
KSM2 251355Z 22011KT 22/15 A3004 RMK A01 T02230148  RH  062%=      5-min Rain = 0
KSM2 251356Z 22012KT 22/15 A3004 RMK A01 T02230149  RH  063%=      5-min Rain = 0
KSM2 251357Z 22012KT 22/15 A3004 RMK A01 T02240148  RH  062%=      5-min Rain = 0
KSM2 251358Z 21013KT 22/15 A3004 RMK A01 T02240149  RH  062%=      5-min Rain = 0
KSM2 251359Z 21014KT 22/15 A3004 RMK A01 T02240149  RH  062%=      5-min Rain = 0
KSM2 251400Z 21012KT 22/15 A3004 RMK A01 T02240149  RH  062%=      5-min Rain = 0
KSM2 251401Z 21014KT 23/15 A3004 RMK A01 T02260152  RH  063%=      5-min Rain = 0
KSM2 251402Z 21013KT 23/15 A3004 RMK A01 T02270151  RH  062%=      5-min Rain = 0
KSM2 251403Z 21011KT 23/15 A3004 RMK A01 T02260152  RH  063%=      5-min Rain = 0
KSM2 251404Z 21012KT 23/15 A3004 RMK A01 T02270153  RH  063%=      5-min Rain = 0
KSM2 251405Z 21014KT 23/15 A3004 RMK A01 T02290153  RH  062%=      5-min Rain = 0
KSM2 251406Z 21014KT 23/15 A3004 RMK A01 T02290154  RH  062%=      5-min Rain = 0
KSM2 251407Z 21013KT 23/16 A3004 RMK A01 T02290155  RH  063%=      5-min Rain = 0
KSM2 251408Z 21012KT 23/16 A3004 RMK A01 T02290155  RH  063%=      5-min Rain = 0
KSM2 251409Z 22013G18KT 23/16 A3004 RMK A01 T02300156  RH  063%=      5-min Rain = 0
KSM2 251410Z 23015KT 23/16 A3004 RMK A01 T02320158  RH  063%=      5-min Rain = 0
KSM2 251411Z 23015KT 23/16 A3004 RMK A01 T02330159  RH  063%=      5-min Rain = 0
KSM2 251412Z 23014KT 23/16 A3004 RMK A01 T02330159  RH  063%=      5-min Rain = 0
KSM2 251413Z 22016KT 23/16 A3004 RMK A01 T02330157  RH  062%=      5-min Rain = 0
KSM2 251414Z 23015KT 23/16 A3004 RMK A01 T02340159  RH  063%=      5-min Rain = 0
KSM2 251415Z 22013G18KT 23/16 A3004 RMK A01 T02340159  RH  063%=      5-min Rain = 0
KSM2 251416Z 22016KT 24/16 A3004 RMK A01 T02350160  RH  063%=      5-min Rain = 0
KSM2 251417Z 22013KT 24/16 A3005 RMK A01 T02350160  RH  062%=      5-min Rain = 0
KSM2 251418Z 22013KT 24/16 A3005 RMK A01 T02350161  RH  063%=      5-min Rain = 0
KSM2 251419Z 22016KT 24/16 A3005 RMK A01 T02370159  RH  062%=      5-min Rain = 0
KSM2 251420Z 23016KT 24/16 A3005 RMK A01 T02360159  RH  062%=      5-min Rain = 0
KSM2 251421Z 22015KT 24/16 A3005 RMK A01 T02350158  RH  062%=      5-min Rain = 0
KSM2 251422Z 22014G20KT 24/16 A3005 RMK A01 T02360160  RH  062%=      5-min Rain = 0
KSM2 251423Z 21015KT 24/16 A3005 RMK A01 T02370159  RH  061%=      5-min Rain = 0
KSM2 251424Z 21012KT 24/16 A3004 RMK A01 T02370160  RH  062%=      5-min Rain = 0
KSM2 251425Z 22017KT 24/16 A3004 RMK A01 T02390160  RH  061%=      5-min Rain = 0
KSM2 251426Z 21015KT 24/16 A3004 RMK A01 T02390159  RH  061%=      5-min Rain = 0
KSM2 251427Z 22014KT 24/16 A3004 RMK A01 T02390160  RH  061%=      5-min Rain = 0
KSM2 251428Z 22014KT 24/16 A3004 RMK A01 T02400160  RH  061%=      5-min Rain = 0
KSM2 251429Z 21014KT 24/16 A3004 RMK A01 T02410161  RH  061%=      5-min Rain = 0
KSM2 251430Z 22017KT 24/16 A3004 RMK A01 T02420160  RH  060%=      5-min Rain = 0
KSM2 251431Z 22014KT 24/16 A3004 RMK A01 T02420159  RH  060%=      5-min Rain = 0
KSM2 251432Z 22011KT 24/16 A3004 RMK A01 T02420160  RH  060%=      5-min Rain = 0
KSM2 251433Z 22014KT 25/16 A3004 RMK A01 T02450161  RH  060%=      5-min Rain = 0
KSM2 251434Z 22016KT 25/16 A3004 RMK A01 T02450158  RH  059%=      5-min Rain = 0
KSM2 251435Z 21016KT 24/16 A3004 RMK A01 T02430158  RH  059%=      5-min Rain = 0
KSM2 251436Z 22015KT 24/16 A3004 RMK A01 T02420158  RH  059%=      5-min Rain = 0
KSM2 251437Z 22013KT 24/16 A3004 RMK A01 T02430159  RH  059%=      5-min Rain = 0
KSM2 251438Z 22014KT 24/16 A3004 RMK A01 T02440159  RH  059%=      5-min Rain = 0
KSM2 251439Z 21016KT 25/16 A3004 RMK A01 T02450160  RH  059%=      5-min Rain = 0
KSM2 251440Z 21017KT 25/16 A3004 RMK A01 T02450158  RH  059%=      5-min Rain = 0
KSM2 251441Z 21014KT 24/16 A3004 RMK A01 T02440159  RH  059%=      5-min Rain = 0
KSM2 251442Z 22014KT 25/16 A3004 RMK A01 T02450160  RH  059%=      5-min Rain = 0
KSM2 251443Z 21016KT 25/16 A3004 RMK A01 T02460160  RH  059%=      5-min Rain = 0
KSM2 251444Z 21015KT 25/16 A3004 RMK A01 T02460160  RH  059%=      5-min Rain = 0
KSM2 251445Z 21016KT 25/16 A3004 RMK A01 T02480162  RH  059%=      5-min Rain = 0
KSM2 251446Z 21015KT 25/16 A3004 RMK A01 T02490162  RH  058%=      5-min Rain = 0
KSM2 251447Z 21016KT 25/16 A3004 RMK A01 T02490161  RH  058%=      5-min Rain = 0
KSM2 251448Z 23013KT 25/16 A3004 RMK A01 T02490162  RH  058%=      5-min Rain = 0
KSM2 251449Z 22013KT 25/16 A3004 RMK A01 T02500163  RH  058%=      5-min Rain = 0
KSM2 251450Z 21015KT 25/16 A3004 RMK A01 T02510161  RH  057%=      5-min Rain = 0
KSM2 251451Z 21014KT 25/16 A3004 RMK A01 T02500161  RH  057%=      5-min Rain = 0
KSM2 251452Z 22014KT 25/16 A3004 RMK A01 T02500161  RH  058%=      5-min Rain = 0
KSM2 251453Z 22014KT 25/16 A3004 RMK A01 T02500160  RH  057%=      5-min Rain = 0
KSM2 251454Z 22014KT 25/16 A3004 RMK A01 T02500161  RH  057%=      5-min Rain = 0
KSM2 251455Z 22012KT 25/16 A3004 RMK A01 T02500161  RH  057%=      5-min Rain = 0
KSM2 251456Z 23015KT 25/16 A3004 RMK A01 T02510161  RH  057%=      5-min Rain = 0
KSM2 251457Z 22015KT 25/16 A3004 RMK A01 T02520160  RH  057%=      5-min Rain = 0
KSM2 251458Z 22017KT 25/16 A3004 RMK A01 T02510160  RH  057%=      5-min Rain = 0
KSM2 251459Z 23018KT 25/16 A3004 RMK A01 T02500159  RH  057%=      5-min Rain = 0
KSM2 251500Z 22015KT 25/16 A3004 RMK A01 T02490159  RH  057%=      5-min Rain = 0
KSM2 251501Z 21016KT 25/16 A3004 RMK A01 T02500161  RH  058%=      5-min Rain = 0
KSM2 251502Z 21017KT 25/16 A3004 RMK A01 T02510159  RH  057%=      5-min Rain = 0
KSM2 251503Z 22015KT 25/16 A3004 RMK A01 T02510158  RH  056%=      5-min Rain = 0
KSM2 251504Z 22014KT 25/16 A3004 RMK A01 T02520159  RH  056%=      5-min Rain = 0
KSM2 251505Z 21015KT 25/16 A3004 RMK A01 T02540160  RH  056%=      5-min Rain = 0
KSM2 251506Z 22016KT 25/16 A3004 RMK A01 T02540160  RH  056%=      5-min Rain = 0
KSM2 251507Z 22015KT 25/16 A3004 RMK A01 T02540161  RH  057%=      5-min Rain = 0
KSM2 251508Z 23015G20KT 25/16 A3004 RMK A01 T02530158  RH  056%=      5-min Rain = 0
KSM2 251509Z 22017KT 25/16 A3004 RMK A01 T02530158  RH  056%=      5-min Rain = 0
KSM2 251510Z 21016KT 25/16 A3004 RMK A01 T02530160  RH  056%=      5-min Rain = 0
KSM2 251511Z 21016KT 25/16 A3004 RMK A01 T02540159  RH  056%=      5-min Rain = 0
KSM2 251512Z 22018KT 25/16 A3003 RMK A01 T02540159  RH  056%=      5-min Rain = 0
KSM2 251513Z 21018KT 26/16 A3003 RMK A01 T02550159  RH  055%=      5-min Rain = 0
KSM2 251514Z 22016KT 26/16 A3003 RMK A01 T02550160  RH  056%=      5-min Rain = 0
KSM2 251515Z 22018KT 26/16 A3003 RMK A01 T02560159  RH  055%=      5-min Rain = 0
KSM2 251516Z 22015KT 26/16 A3003 RMK A01 T02560159  RH  055%=      5-min Rain = 0
KSM2 251517Z 22014KT 26/16 A3003 RMK A01 T02570160  RH  055%=      5-min Rain = 0
KSM2 251518Z 22016KT 26/16 A3003 RMK A01 T02590159  RH  054%=      5-min Rain = 0
KSM2 251519Z 22016KT 26/16 A3003 RMK A01 T02600158  RH  053%=      5-min Rain = 0
KSM2 251520Z 23015KT 26/16 A3003 RMK A01 T02590158  RH  054%=      5-min Rain = 0
KSM2 251521Z 22017KT 26/16 A3003 RMK A01 T02600159  RH  054%=      5-min Rain = 0
KSM2 251522Z 22016KT 26/16 A3003 RMK A01 T02610158  RH  053%=      5-min Rain = 0
KSM2 251523Z 21015KT 26/16 A3003 RMK A01 T02610160  RH  054%=      5-min Rain = 0
KSM2 251524Z 21016KT 26/16 A3003 RMK A01 T02610158  RH  053%=      5-min Rain = 0
KSM2 251525Z 22016KT 26/16 A3003 RMK A01 T02600159  RH  053%=      5-min Rain = 0
KSM2 251526Z 21015KT 26/16 A3003 RMK A01 T02600160  RH  054%=      5-min Rain = 0
KSM2 251527Z 22016KT 26/16 A3003 RMK A01 T02620159  RH  053%=      5-min Rain = 0
KSM2 251528Z 21016KT 26/16 A3003 RMK A01 T02630158  RH  053%=      5-min Rain = 0
KSM2 251529Z 21015KT 26/16 A3003 RMK A01 T02620159  RH  053%=      5-min Rain = 0
KSM2 251530Z 21016KT 26/16 A3003 RMK A01 T02620158  RH  053%=      5-min Rain = 0
KSM2 251531Z 22013KT 27/16 A3003 RMK A01 T02650161  RH  053%=      5-min Rain = 0
KSM2 251532Z 23015KT 27/16 A3003 RMK A01 T02650157  RH  051%=      5-min Rain = 0
KSM2 251533Z 23014KT 27/16 A3003 RMK A01 T02650157  RH  052%=      5-min Rain = 0
KSM2 251534Z 23013KT 27/16 A3003 RMK A01 T02650157  RH  051%=      5-min Rain = 0
KSM2 251535Z 24014KT 27/16 A3003 RMK A01 T02670158  RH  051%=      5-min Rain = 0
KSM2 251536Z 22013KT 27/16 A3003 RMK A01 T02690160  RH  051%=      5-min Rain = 0
KSM2 251537Z 22014KT 27/16 A3003 RMK A01 T02710158  RH  050%=      5-min Rain = 0
KSM2 251538Z 23013KT 27/16 A3003 RMK A01 T02700158  RH  050%=      5-min Rain = 0
KSM2 251539Z 21014KT 27/16 A3003 RMK A01 T02690157  RH  050%=      5-min Rain = 0
KSM2 251540Z 20013KT 27/16 A3003 RMK A01 T02680158  RH  051%=      5-min Rain = 0
KSM2 251541Z 22012KT 27/16 A3003 RMK A01 T02670160  RH  052%=      5-min Rain = 0
KSM2 251542Z 22013KT 27/16 A3003 RMK A01 T02680158  RH  051%=      5-min Rain = 0
KSM2 251543Z 22013G18KT 27/16 A3003 RMK A01 T02690158  RH  051%=      5-min Rain = 0
KSM2 251544Z 22012KT 27/16 A3003 RMK A01 T02700160  RH  051%=      5-min Rain = 0
KSM2 251545Z 23012KT 27/16 A3003 RMK A01 T02710159  RH  050%=      5-min Rain = 0
KSM2 251546Z 21014KT 27/16 A3003 RMK A01 T02720161  RH  051%=      5-min Rain = 0
KSM2 251547Z 20013KT 27/16 A3003 RMK A01 T02720156  RH  049%=      5-min Rain = 0
KSM2 251548Z 20014KT 27/16 A3003 RMK A01 T02700156  RH  050%=      5-min Rain = 0
KSM2 251549Z 21015KT 27/16 A3003 RMK A01 T02710156  RH  049%=      5-min Rain = 0
KSM2 251550Z 21016KT 27/16 A3003 RMK A01 T02730156  RH  049%=      5-min Rain = 0
KSM2 251551Z 22013KT 28/16 A3003 RMK A01 T02750157  RH  049%=      5-min Rain = 0
KSM2 251552Z 23014KT 28/16 A3003 RMK A01 T02760157  RH  048%=      5-min Rain = 0
KSM2 251553Z 22016KT 28/15 A3003 RMK A01 T02780154  RH  047%=      5-min Rain = 0
KSM2 251554Z 22011KT 28/15 A3003 RMK A01 T02760154  RH  047%=      5-min Rain = 0
KSM2 251555Z 22013KT 28/16 A3003 RMK A01 T02760156  RH  048%=      5-min Rain = 0
KSM2 251556Z 22013KT 28/16 A3003 RMK A01 T02770155  RH  047%=      5-min Rain = 0
KSM2 251557Z 22013KT 28/16 A3003 RMK A01 T02780156  RH  047%=      5-min Rain = 0
KSM2 251558Z 21014KT 28/16 A3003 RMK A01 T02790157  RH  048%=      5-min Rain = 0
KSM2 251559Z 21014KT 28/15 A3003 RMK A01 T02800154  RH  046%=      5-min Rain = 0
KSM2 251600Z 21012KT 28/15 A3003 RMK A01 T02790152  RH  046%=      5-min Rain = 0
KSM2 251601Z 22012KT 28/16 A3003 RMK A01 T02790156  RH  047%=      5-min Rain = 0
KSM2 251602Z 22014KT 28/15 A3003 RMK A01 T02820154  RH  046%=      5-min Rain = 0
KSM2 251603Z 21011KT 28/16 A3003 RMK A01 T02820159  RH  047%=      5-min Rain = 0
KSM2 251604Z 21010KT 28/16 A3003 RMK A01 T02820161  RH  048%=      5-min Rain = 0
KSM2 251605Z 22012KT 28/16 A3003 RMK A01 T02820157  RH  047%=      5-min Rain = 0
KSM2 251606Z 23011KT 28/16 A3003 RMK A01 T02820156  RH  047%=      5-min Rain = 0
KSM2 251607Z 22011KT 28/16 A3003 RMK A01 T02820158  RH  047%=      5-min Rain = 0
KSM2 251608Z 21012KT 28/16 A3003 RMK A01 T02830159  RH  047%=      5-min Rain = 0
KSM2 251609Z 22009KT 28/16 A3003 RMK A01 T02840160  RH  047%=      5-min Rain = 0
KSM2 251610Z 22012G17KT 29/16 A3003 RMK A01 T02850160  RH  047%=      5-min Rain = 0
KSM2 251611Z 22012KT 29/16 A3003 RMK A01 T02870157  RH  045%=      5-min Rain = 0
KSM2 251612Z 21013KT 29/16 A3003 RMK A01 T02880157  RH  045%=      5-min Rain = 0
KSM2 251613Z 21014KT 29/16 A3003 RMK A01 T02860155  RH  045%=      5-min Rain = 0
KSM2 251614Z 22012KT 29/15 A3003 RMK A01 T02860154  RH  045%=      5-min Rain = 0
KSM2 251615Z 22013KT 29/15 A3003 RMK A01 T02870154  RH  044%=      5-min Rain = 0
KSM2 251616Z 20012KT 29/16 A3003 RMK A01 T02880156  RH  045%=      5-min Rain = 0
KSM2 251617Z 21012KT 29/16 A3003 RMK A01 T02870156  RH  045%=      5-min Rain = 0
KSM2 251618Z 20009KT 29/16 A3003 RMK A01 T02850157  RH  046%=      5-min Rain = 0
KSM2 251619Z 22012KT 29/16 A3003 RMK A01 T02870157  RH  045%=      5-min Rain = 0
KSM2 251620Z 22012KT 29/16 A3003 RMK A01 T02900158  RH  045%=      5-min Rain = 0
KSM2 251621Z 21011KT 29/16 A3003 RMK A01 T02910156  RH  044%=      5-min Rain = 0
KSM2 251622Z 23011KT 29/16 A3003 RMK A01 T02890156  RH  044%=      5-min Rain = 0
KSM2 251623Z 22012KT 29/15 A3003 RMK A01 T02890152  RH  043%=      5-min Rain = 0
KSM2 251624Z 21011KT 29/16 A3003 RMK A01 T02910156  RH  044%=      5-min Rain = 0
KSM2 251625Z 20013KT 29/15 A3003 RMK A01 T02920154  RH  043%=      5-min Rain = 0
KSM2 251626Z 22013KT 29/15 A3003 RMK A01 T02930154  RH  043%=      5-min Rain = 0
KSM2 251627Z 21009KT 29/16 A3003 RMK A01 T02940155  RH  043%=      5-min Rain = 0
KSM2 251628Z 20010KT 30/16 A3003 RMK A01 T02950158  RH  044%=      5-min Rain = 0
KSM2 251629Z 21010KT 30/16 A3003 RMK A01 T02960157  RH  043%=      5-min Rain = 0
KSM2 251630Z 21012KT 30/16 A3003 RMK A01 T02960157  RH  043%=      5-min Rain = 0
KSM2 251631Z 21010KT 30/15 A3003 RMK A01 T02950153  RH  042%=      5-min Rain = 0
KSM2 251632Z 21010G16KT 29/16 A3003 RMK A01 T02930156  RH  043%=      5-min Rain = 0
KSM2 251633Z 21013KT 29/15 A3003 RMK A01 T02940153  RH  042%=      5-min Rain = 0
KSM2 251634Z 23011KT 29/15 A3003 RMK A01 T02940152  RH  042%=      5-min Rain = 0
KSM2 251635Z 22008KT 29/15 A3003 RMK A01 T02940153  RH  042%=      5-min Rain = 0
KSM2 251636Z 21010KT 30/15 A3003 RMK A01 T02960154  RH  042%=      5-min Rain = 0
KSM2 251637Z 20010KT 30/16 A3003 RMK A01 T02970155  RH  042%=      5-min Rain = 0
KSM2 251638Z 19012KT 30/15 A3003 RMK A01 T02960152  RH  042%=      5-min Rain = 0
KSM2 251639Z 22010KT 30/16 A3003 RMK A01 T02950158  RH  043%=      5-min Rain = 0
KSM2 251640Z 21009KT 30/16 A3003 RMK A01 T02970155  RH  042%=      5-min Rain = 0
KSM2 251641Z 21010KT 30/16 A3003 RMK A01 T02990160  RH  043%=      5-min Rain = 0
KSM2 251642Z 22011KT 30/15 A3003 RMK A01 T03010154  RH  041%=      5-min Rain = 0
KSM2 251643Z 23010KT 30/15 A3003 RMK A01 T03010150  RH  040%=      5-min Rain = 0
KSM2 251644Z 20011KT 30/15 A3003 RMK A01 T03000152  RH  041%=      5-min Rain = 0
KSM2 251645Z 21008KT 30/16 A3003 RMK A01 T02980155  RH  042%=      5-min Rain = 0
KSM2 251646Z 21010KT 30/16 A3003 RMK A01 T02980156  RH  042%=      5-min Rain = 0
KSM2 251647Z 23009KT 30/15 A3003 RMK A01 T03000149  RH  040%=      5-min Rain = 0
KSM2 251648Z 22009KT 30/15 A3003 RMK A01 T03020151  RH  040%=      5-min Rain = 0
KSM2 251649Z 22012KT 30/15 A3003 RMK A01 T03030151  RH  040%=      5-min Rain = 0
KSM2 251650Z 23010KT 30/15 A3003 RMK A01 T03040146  RH  038%=      5-min Rain = 0
KSM2 251651Z 22010KT 30/15 A3003 RMK A01 T03030152  RH  040%=      5-min Rain = 0
KSM2 251652Z 23011KT 30/15 A3002 RMK A01 T03040153  RH  040%=      5-min Rain = 0
KSM2 251653Z 22010KT 30/15 A3003 RMK A01 T03040153  RH  040%=      5-min Rain = 0
KSM2 251654Z 21010KT 31/16 A3003 RMK A01 T03050156  RH  041%=      5-min Rain = 0
KSM2 251655Z 21009KT 31/15 A3003 RMK A01 T03060151  RH  039%=      5-min Rain = 0
KSM2 251656Z 22010KT 31/16 A3003 RMK A01 T03070155  RH  040%=      5-min Rain = 0
KSM2 251657Z 21012KT 31/15 A3003 RMK A01 T03080152  RH  039%=      5-min Rain = 0
KSM2 251658Z 21010KT 31/15 A3003 RMK A01 T03080152  RH  039%=      5-min Rain = 0
KSM2 251659Z 22011KT 31/15 A3003 RMK A01 T03070150  RH  039%=      5-min Rain = 0
KSM2 251700Z 21009KT 31/15 A3003 RMK A01 T03080149  RH  038%=      5-min Rain = 0
KSM2 251701Z 22007KT 31/15 A3002 RMK A01 T03090153  RH  039%=      5-min Rain = 0
KSM2 251702Z 20010KT 31/15 A3002 RMK A01 T03110152  RH  038%=      5-min Rain = 0
KSM2 251703Z 21010KT 31/15 A3002 RMK A01 T03110148  RH  037%=      5-min Rain = 0
KSM2 251704Z 20009KT 31/15 A3002 RMK A01 T03090149  RH  038%=      5-min Rain = 0
KSM2 251705Z 20009KT 31/15 A3002 RMK A01 T03110150  RH  038%=      5-min Rain = 0
KSM2 251706Z 22010KT 31/15 A3002 RMK A01 T03130145  RH  036%=      5-min Rain = 0
KSM2 251707Z 22010KT 31/14 A3002 RMK A01 T03130141  RH  035%=      5-min Rain = 0
KSM2 251708Z 23011KT 31/14 A3002 RMK A01 T03120141  RH  035%=      5-min Rain = 0
KSM2 251709Z 22009KT 31/14 A3002 RMK A01 T03120143  RH  036%=      5-min Rain = 0
KSM2 251710Z 22009KT 31/15 A3002 RMK A01 T03120148  RH  037%=      5-min Rain = 0
KSM2 251711Z 21010KT 31/15 A3002 RMK A01 T03140150  RH  037%=      5-min Rain = 0
KSM2 251712Z 19009KT 32/15 A3002 RMK A01 T03160147  RH  036%=      5-min Rain = 0
KSM2 251713Z 19008KT 32/15 A3002 RMK A01 T03160149  RH  036%=      5-min Rain = 0
KSM2 251714Z 18011KT 32/14 A3002 RMK A01 T03170142  RH  035%=      5-min Rain = 0
KSM2 251715Z 18010KT 31/15 A3002 RMK A01 T03140147  RH  036%=      5-min Rain = 0
KSM2 251716Z 17008KT 31/15 A3002 RMK A01 T03130146  RH  036%=      5-min Rain = 0
KSM2 251717Z 19007KT 31/15 A3002 RMK A01 T03130151  RH  038%=      5-min Rain = 0
KSM2 251718Z 19009G15KT 31/15 A3002 RMK A01 T03140148  RH  037%=      5-min Rain = 0
KSM2 251719Z 21010KT 32/15 A3002 RMK A01 T03150147  RH  036%=      5-min Rain = 0
KSM2 251720Z 19012KT 32/15 A3002 RMK A01 T03150147  RH  036%=      5-min Rain = 0
KSM2 251721Z 20012KT 32/14 A3002 RMK A01 T03170144  RH  035%=      5-min Rain = 0
KSM2 251722Z 19011KT 32/14 A3002 RMK A01 T03170144  RH  035%=      5-min Rain = 0
KSM2 251723Z 17009KT 32/14 A3002 RMK A01 T03160139  RH  034%=      5-min Rain = 0
KSM2 251724Z 16010KT 32/13 A3002 RMK A01 T03170130  RH  032%=      5-min Rain = 0
KSM2 251725Z 17009KT 32/13 A3002 RMK A01 T03190132  RH  032%=      5-min Rain = 0
KSM2 251726Z 20012KT 32/13 A3002 RMK A01 T03220134  RH  032%=      5-min Rain = 0
KSM2 251727Z 18013KT 32/14 A3002 RMK A01 T03220135  RH  032%=      5-min Rain = 0
KSM2 251728Z 18012KT 32/13 A3002 RMK A01 T03210134  RH  032%=      5-min Rain = 0
KSM2 251729Z 19009KT 32/14 A3002 RMK A01 T03200136  RH  033%=      5-min Rain = 0
KSM2 251730Z 17006KT 32/14 A3002 RMK A01 T03180136  RH  033%=      5-min Rain = 0
KSM2 251731Z 16008KT 32/14 A3002 RMK A01 T03180139  RH  034%=      5-min Rain = 0
KSM2 251732Z 17007KT 32/14 A3002 RMK A01 T03190144  RH  035%=      5-min Rain = 0
KSM2 251733Z 20008G13KT 32/14 A3002 RMK A01 T03230144  RH  034%=      5-min Rain = 0
KSM2 251734Z 19010KT 33/14 A3002 RMK A01 T03250137  RH  032%=      5-min Rain = 0
KSM2 251735Z 19011G16KT 32/13 A3002 RMK A01 T03230132  RH  031%=      5-min Rain = 0
KSM2 251736Z 19008KT 32/13 A3002 RMK A01 T03210132  RH  032%=      5-min Rain = 0
KSM2 251737Z 19010KT 32/13 A3002 RMK A01 T03220133  RH  032%=      5-min Rain = 0
KSM2 251738Z 21009KT 32/13 A3002 RMK A01 T03240129  RH  031%=      5-min Rain = 0
KSM2 251739Z 20010KT 32/13 A3002 RMK A01 T03230132  RH  031%=      5-min Rain = 0
KSM2 251740Z 18012KT 32/13 A3002 RMK A01 T03240134  RH  032%=      5-min Rain = 0
KSM2 251741Z 18009KT 32/13 A3002 RMK A01 T03240132  RH  031%=      5-min Rain = 0
KSM2 251742Z 19012KT 32/13 A3002 RMK A01 T03230126  RH  030%=      5-min Rain = 0
KSM2 251743Z 18012KT 32/13 A3002 RMK A01 T03220126  RH  030%=      5-min Rain = 0
KSM2 251744Z 18008KT 32/13 A3002 RMK A01 T03210125  RH  030%=      5-min Rain = 0
KSM2 251745Z 20008KT 32/13 A3002 RMK A01 T03220128  RH  031%=      5-min Rain = 0
KSM2 251746Z 20010KT 33/13 A3002 RMK A01 T03250132  RH  031%=      5-min Rain = 0
KSM2 251747Z 21009KT 33/13 A3002 RMK A01 T03260127  RH  030%=      5-min Rain = 0
KSM2 251748Z 21010KT 32/13 A3002 RMK A01 T03240129  RH  031%=      5-min Rain = 0
KSM2 251749Z 21010KT 32/13 A3001 RMK A01 T03240128  RH  030%=      5-min Rain = 0
KSM2 251750Z 20010KT 33/13 A3001 RMK A01 T03250130  RH  031%=      5-min Rain = 0
KSM2 251751Z 19009KT 33/13 A3001 RMK A01 T03260127  RH  030%=      5-min Rain = 0
KSM2 251752Z 20009KT 33/13 A3001 RMK A01 T03250130  RH  031%=      5-min Rain = 0
KSM2 251753Z 17009KT 33/13 A3001 RMK A01 T03260129  RH  030%=      5-min Rain = 0
KSM2 251754Z 20009KT 33/14 A3001 RMK A01 T03280135  RH  031%=      5-min Rain = 0
KSM2 251755Z 19009KT 33/13 A3001 RMK A01 T03280132  RH  031%=      5-min Rain = 0
KSM2 251756Z 16009KT 33/13 A3001 RMK A01 T03270129  RH  030%=      5-min Rain = 0
KSM2 251757Z 18010KT 33/13 A3001 RMK A01 T03290126  RH  029%=      5-min Rain = 0
KSM2 251758Z 17008KT 33/12 A3001 RMK A01 T03300124  RH  029%=      5-min Rain = 0
KSM2 251759Z 18011KT 33/13 A3001 RMK A01 T03320127  RH  029%=      5-min Rain = 0
KSM2 251800Z 20013KT 33/12 A3001 RMK A01 T03320121  RH  028%=      5-min Rain = 0
KSM2 251801Z 18014KT 33/12 A3001 RMK A01 T03300116  RH  027%=      5-min Rain = 0
KSM2 251802Z 18009KT 33/11 A3001 RMK A01 T03280114  RH  027%=      5-min Rain = 0
KSM2 251803Z 20010KT 33/12 A3001 RMK A01 T03270116  RH  028%=      5-min Rain = 0
KSM2 251804Z 21009KT 33/11 A3001 RMK A01 T03270113  RH  027%=      5-min Rain = 0
KSM2 251805Z 21009KT 33/12 A3001 RMK A01 T03270120  RH  028%=      5-min Rain = 0
KSM2 251806Z 18009KT 33/12 A3001 RMK A01 T03290119  RH  028%=      5-min Rain = 0
KSM2 251807Z 18010G15KT 33/11 A3001 RMK A01 T03310113  RH  026%=      5-min Rain = 0
KSM2 251808Z 17012KT 34/11 A3001 RMK A01 T03350110  RH  025%=      5-min Rain = 0
KSM2 251809Z 18013G19KT 34/11 A3001 RMK A01 T03350111  RH  026%=      5-min Rain = 0
KSM2 251810Z 17010KT 33/12 A3001 RMK A01 T03320120  RH  028%=      5-min Rain = 0
KSM2 251811Z 19012KT 33/12 A3001 RMK A01 T03320115  RH  027%=      5-min Rain = 0
KSM2 251812Z 18013KT 33/11 A3001 RMK A01 T03310112  RH  026%=      5-min Rain = 0
KSM2 251813Z 18009KT 33/11 A3001 RMK A01 T03290111  RH  026%=      5-min Rain = 0
KSM2 251814Z 21009KT 33/11 A3001 RMK A01 T03280113  RH  027%=      5-min Rain = 0
KSM2 251815Z 19009KT 33/12 A3001 RMK A01 T03310115  RH  027%=      5-min Rain = 0
KSM2 251816Z 16011KT 34/11 A3001 RMK A01 T03360112  RH  026%=      5-min Rain = 0
KSM2 251817Z 18010KT 34/09 A3001 RMK A01 T03380094  RH  022%=      5-min Rain = 0
KSM2 251818Z 17008KT 34/10 A3001 RMK A01 T03370102  RH  024%=      5-min Rain = 0
KSM2 251819Z 16007KT 34/10 A3001 RMK A01 T03360100  RH  024%=      5-min Rain = 0
KSM2 251820Z 16006KT 34/11 A3001 RMK A01 T03360109  RH  025%=      5-min Rain = 0
KSM2 251821Z 20012KT 34/11 A3001 RMK A01 T03380112  RH  025%=      5-min Rain = 0
KSM2 251822Z 21010KT 34/12 A3001 RMK A01 T03360124  RH  028%=      5-min Rain = 0
KSM2 251823Z 22007KT 34/13 A3001 RMK A01 T03350125  RH  028%=      5-min Rain = 0
KSM2 251824Z 21010KT 33/11 A3001 RMK A01 T03340110  RH  025%=      5-min Rain = 0
KSM2 251825Z 21013KT 34/11 A3001 RMK A01 T03350105  RH  025%=      5-min Rain = 0
KSM2 251826Z 18011KT 34/11 A3001 RMK A01 T03370112  RH  025%=      5-min Rain = 0
KSM2 251827Z 16009KT 34/11 A3001 RMK A01 T03380110  RH  025%=      5-min Rain = 0
KSM2 251828Z 18010G15KT 34/11 A3001 RMK A01 T03390113  RH  025%=      5-min Rain = 0
KSM2 251829Z 20013KT 34/10 A3001 RMK A01 T03380103  RH  024%=      5-min Rain = 0
KSM2 251830Z 19013KT 34/11 A3001 RMK A01 T03380106  RH  024%=      5-min Rain = 0
KSM2 251831Z 18008KT 34/11 A3001 RMK A01 T03350106  RH  025%=      5-min Rain = 0
KSM2 251832Z 18007KT 33/11 A3001 RMK A01 T03320110  RH  026%=      5-min Rain = 0
KSM2 251833Z 17008KT 33/11 A3001 RMK A01 T03320113  RH  026%=      5-min Rain = 0
KSM2 251834Z 16007KT 33/10 A3001 RMK A01 T03340102  RH  024%=      5-min Rain = 0
KSM2 251835Z 16010KT 34/10 A3001 RMK A01 T03360100  RH  024%=      5-min Rain = 0
KSM2 251836Z 15011KT 34/09 A3001 RMK A01 T03390093  RH  022%=      5-min Rain = 0
KSM2 251837Z 14008KT 34/09 A3001 RMK A01 T03420093  RH  022%=      5-min Rain = 0
KSM2 251838Z 15008KT 34/10 A3001 RMK A01 T03420099  RH  023%=      5-min Rain = 0
KSM2 251839Z 15009KT 34/11 A3001 RMK A01 T03410108  RH  024%=      5-min Rain = 0
KSM2 251840Z 17009G15KT 34/12 A3001 RMK A01 T03420117  RH  026%=      5-min Rain = 0
KSM2 251841Z 18011KT 34/10 A3001 RMK A01 T03440103  RH  023%=      5-min Rain = 0
KSM2 251842Z 17013KT 34/09 A3001 RMK A01 T03420093  RH  022%=      5-min Rain = 0
KSM2 251843Z 18011KT 34/08 A3001 RMK A01 T03410079  RH  020%=      5-min Rain = 0
KSM2 251844Z 18009KT 34/07 A3001 RMK A01 T03410073  RH  019%=      5-min Rain = 0
KSM2 251845Z 17008KT 34/07 A3001 RMK A01 T03400066  RH  018%=      5-min Rain = 0
KSM2 251846Z 16011KT 34/09 A3001 RMK A01 T03400087  RH  021%=      5-min Rain = 0
KSM2 251847Z 19007KT 34/10 A3001 RMK A01 T03410097  RH  022%=      5-min Rain = 0
KSM2 251848Z 18006KT 34/10 A3001 RMK A01 T03420102  RH  023%=      5-min Rain = 0
KSM2 251849Z 16011KT 34/10 A3001 RMK A01 T03420099  RH  023%=      5-min Rain = 0
KSM2 251850Z 17008G14KT 34/10 A3001 RMK A01 T03410096  RH  022%=      5-min Rain = 0
KSM2 251851Z 14007KT 34/10 A3001 RMK A01 T03410097  RH  022%=      5-min Rain = 0
KSM2 251852Z 13009KT 34/09 A3001 RMK A01 T03420090  RH  021%=      5-min Rain = 0
KSM2 251853Z 14008KT 34/09 A30 RMK A01 T03400090  RH  022%=      5-min Rain = 0
KSM2 251854Z 15011KT 34/09 A3001 RMK A01 T03390093  RH  022%=      5-min Rain = 0
KSM2 251855Z 16010KT 34/10 A30 RMK A01 T03400097  RH  023%=      5-min Rain = 0
KSM2 251856Z 15007KT 34/11 A30 RMK A01 T03390105  RH  024%=      5-min Rain = 0
KSM2 251857Z 20012G17KT 34/10 A30 RMK A01 T03420104  RH  023%=      5-min Rain = 0
KSM2 251858Z 20011KT 35/10 A30 RMK A01 T03450097  RH  022%=      5-min Rain = 0
KSM2 251859Z 18008KT 35/11 A30 RMK A01 T03470105  RH  023%=      5-min Rain = 0
KSM2 251900Z 16009KT 35/11 A30 RMK A01 T03480106  RH  023%=      5-min Rain = 0
KSM2 251901Z 13008KT 35/10 A30 RMK A01 T03480102  RH  022%=      5-min Rain = 0
KSM2 251902Z 14011KT 35/10 A30 RMK A01 T03470103  RH  023%=      5-min Rain = 0
KSM2 251903Z 14012KT 35/09 A30 RMK A01 T03480093  RH  021%=      5-min Rain = 0
KSM2 251904Z 14010KT 35/10 A30 RMK A01 T03460098  RH  022%=      5-min Rain = 0
KSM2 251905Z 14011KT 35/10 A30 RMK A01 T03450097  RH  022%=      5-min Rain = 0
KSM2 251906Z 15011KT 35/10 A30 RMK A01 T03450098  RH  022%=      5-min Rain = 0
KSM2 251907Z 18014KT 35/09 A30 RMK A01 T03480092  RH  021%=      5-min Rain = 0
KSM2 251908Z 19015KT 35/09 A30 RMK A01 T03480090  RH  021%=      5-min Rain = 0
KSM2 251909Z 19010KT 34/09 A30 RMK A01 T03440089  RH  021%=      5-min Rain = 0
KSM2 251910Z 19010KT 34/10 A30 RMK A01 T03420096  RH  022%=      5-min Rain = 0
KSM2 251911Z 16008KT 34/10 A30 RMK A01 T03420097  RH  022%=      5-min Rain = 0
KSM2 251912Z 15011G16KT 35/10 A30 RMK A01 T03450097  RH  022%=      5-min Rain = 0
KSM2 251913Z 16011KT 35/09 A30 RMK A01 T03480088  RH  020%=      5-min Rain = 0
KSM2 251914Z 17011KT 35/09 A30 RMK A01 T03470093  RH  021%=      5-min Rain = 0
KSM2 251915Z 18012KT 35/09 A30 RMK A01 T03470091  RH  021%=      5-min Rain = 0
KSM2 251916Z 17011KT 35/10 A30 RMK A01 T03450095  RH  022%=      5-min Rain = 0
KSM2 251917Z 18009KT 34/09 A30 RMK A01 T03430092  RH  021%=      5-min Rain = 0
KSM2 251918Z 13008KT 34/10 A30 RMK A01 T03430097  RH  022%=      5-min Rain = 0
KSM2 251919Z 17009KT 35/10 A30 RMK A01 T03470099  RH  022%=      5-min Rain = 0
KSM2 251920Z 17009KT 35/10 A30 RMK A01 T03480098  RH  022%=      5-min Rain = 0
KSM2 251921Z 18009KT 35/10 A30 RMK A01 T03460099  RH  022%=      5-min Rain = 0
KSM2 251922Z 18011KT 35/10 A30 RMK A01 T03470099  RH  022%=      5-min Rain = 0
KSM2 251923Z 18013KT 35/10 A30 RMK A01 T03490099  RH  022%=      5-min Rain = 0
KSM2 251924Z 16008G13KT 35/09 A30 RMK A01 T03490094  RH  021%=      5-min Rain = 0
KSM2 251925Z 16010KT 35/09 A30 RMK A01 T03480094  RH  021%=      5-min Rain = 0
KSM2 251926Z 16014G19KT 35/09 A30 RMK A01 T03490094  RH  021%=      5-min Rain = 0
KSM2 251927Z 16010G16KT 35/09 A30 RMK A01 T03490093  RH  021%=      5-min Rain = 0
KSM2 251928Z 16013KT 35/08 A30 RMK A01 T03490084  RH  020%=      5-min Rain = 0
KSM2 251929Z 17012KT 35/07 A30 RMK A01 T03480067  RH  018%=      5-min Rain = 0
KSM2 251930Z 17009KT 35/06 A30 RMK A01 T03450064  RH  018%=      5-min Rain = 0
KSM2 251931Z 17007KT 34/08 A30 RMK A01 T03440084  RH  020%=      5-min Rain = 0
KSM2 251932Z 19006KT 35/10 A30 RMK A01 T03450096  RH  022%=      5-min Rain = 0
KSM2 251933Z 21004KT 35/09 A2999 RMK A01 T03460091  RH  021%=      5-min Rain = 0
KSM2 251934Z 20005KT 35/09 A2999 RMK A01 T03460092  RH  021%=      5-min Rain = 0
KSM2 251935Z 19008KT 35/09 A2999 RMK A01 T03470090  RH  021%=      5-min Rain = 0
KSM2 251936Z 17006KT 35/10 A2999 RMK A01 T03470096  RH  022%=      5-min Rain = 0
KSM2 251937Z 19008KT 35/09 A2999 RMK A01 T03480087  RH  020%=      5-min Rain = 0
KSM2 251938Z 18011KT 35/09 A2999 RMK A01 T03480091  RH  021%=      5-min Rain = 0
KSM2 251939Z 17013KT 35/07 A2999 RMK A01 T03500074  RH  018%=      5-min Rain = 0
KSM2 251940Z 15013KT 35/07 A2999 RMK A01 T03490072  RH  018%=      5-min Rain = 0
KSM2 251941Z 15009KT 35/08 A2999 RMK A01 T03490075  RH  019%=      5-min Rain = 0
KSM2 251942Z 17010KT 35/08 A2999 RMK A01 T03510076  RH  019%=      5-min Rain = 0
KSM2 251943Z 17009KT 35/07 A2999 RMK A01 T03510074  RH  018%=      5-min Rain = 0
KSM2 251944Z 17008KT 35/06 A2999 RMK A01 T03500064  RH  017%=      5-min Rain = 0
KSM2 251945Z 18007KT 35/07 A2999 RMK A01 T03480069  RH  018%=      5-min Rain = 0
KSM2 251946Z 20008KT 35/08 A2999 RMK A01 T03480078  RH  019%=      5-min Rain = 0
KSM2 251947Z 17008KT 35/08 A2999 RMK A01 T03460080  RH  020%=      5-min Rain = 0
KSM2 251948Z 16008KT 35/09 A2999 RMK A01 T03470088  RH  021%=      5-min Rain = 0
KSM2 251949Z 18015G20KT 35/09 A2999 RMK A01 T03500085  RH  020%=      5-min Rain = 0
KSM2 251950Z 18015KT 35/08 A2999 RMK A01 T03500082  RH  019%=      5-min Rain = 0
KSM2 251951Z 19011KT 35/08 A2999 RMK A01 T03470081  RH  019%=      5-min Rain = 0
KSM2 251952Z 21008KT 34/08 A2999 RMK A01 T03440079  RH  020%=      5-min Rain = 0
KSM2 251953Z 21007KT 34/08 A2999 RMK A01 T03420077  RH  020%=      5-min Rain = 0
KSM2 251954Z 19008KT 34/09 A2999 RMK A01 T03420086  RH  021%=      5-min Rain = 0
KSM2 251955Z 21009KT 35/09 A2999 RMK A01 T03480088  RH  020%=      5-min Rain = 0
KSM2 251956Z 19008KT 35/07 A2999 RMK A01 T03500074  RH  018%=      5-min Rain = 0
KSM2 251957Z 17009KT 35/08 A2999 RMK A01 T03480078  RH  019%=      5-min Rain = 0
KSM2 251958Z 18011KT 35/08 A2999 RMK A01 T03490079  RH  019%=      5-min Rain = 0
KSM2 251959Z 18009KT 35/07 A2999 RMK A01 T03500069  RH  018%=      5-min Rain = 0
KSM2 252000Z 16007KT 35/07 A2999 RMK A01 T03500074  RH  018%=      5-min Rain = 0
KSM2 252001Z 18011KT 35/08 A2999 RMK A01 T03500082  RH  019%=      5-min Rain = 0
KSM2 252002Z 21012KT 35/09 A2999 RMK A01 T03510086  RH  020%=      5-min Rain = 0
KSM2 252003Z 21011KT 35/09 A2999 RMK A01 T03500085  RH  020%=      5-min Rain = 0
KSM2 252004Z 20008KT 35/08 A2999 RMK A01 T03470084  RH  020%=      5-min Rain = 0
KSM2 252005Z 18012KT 35/08 A2999 RMK A01 T03480082  RH  020%=      5-min Rain = 0
KSM2 252006Z 17010G15KT 35/08 A2999 RMK A01 T03490076  RH  019%=      5-min Rain = 0
KSM2 252007Z 15008KT 35/08 A2999 RMK A01 T03480080  RH  019%=      5-min Rain = 0
KSM2 252008Z 14013KT 35/08 A2999 RMK A01 T03500076  RH  019%=      5-min Rain = 0
KSM2 252009Z 14012KT 35/07 A2999 RMK A01 T03510071  RH  018%=      5-min Rain = 0
KSM2 252010Z 14012KT 35/07 A2999 RMK A01 T03500073  RH  018%=      5-min Rain = 0
KSM2 252011Z 15013KT 35/07 A2999 RMK A01 T03500073  RH  018%=      5-min Rain = 0
KSM2 252012Z 16009KT 35/07 A2999 RMK A01 T03490074  RH  018%=      5-min Rain = 0
KSM2 252013Z 14007KT 35/07 A2998 RMK A01 T03480073  RH  018%=      5-min Rain = 0
KSM2 252014Z 12007G17KT 35/07 A2998 RMK A01 T03470074  RH  019%=      5-min Rain = 0
KSM2 252015Z 14013KT 35/08 A2998 RMK A01 T03480077  RH  019%=      5-min Rain = 0
KSM2 252016Z 13009KT 35/08 A2998 RMK A01 T03500077  RH  019%=      5-min Rain = 0
KSM2 252017Z 12010KT 35/09 A2998 RMK A01 T03510086  RH  020%=      5-min Rain = 0
KSM2 252018Z 13010KT 36/08 A2998 RMK A01 T03550082  RH  019%=      5-min Rain = 0
KSM2 252019Z 13011G16KT 36/08 A2998 RMK A01 T03550078  RH  018%=      5-min Rain = 0
KSM2 252020Z 12012KT 35/08 A2998 RMK A01 T03540080  RH  019%=      5-min Rain = 0
KSM2 252021Z 12007KT 35/08 A2998 RMK A01 T03520080  RH  019%=      5-min Rain = 0
KSM2 252022Z 12006KT 35/08 A2998 RMK A01 T03520076  RH  018%=      5-min Rain = 0
KSM2 252023Z 14009KT 35/08 A2998 RMK A01 T03540081  RH  019%=      5-min Rain = 0
KSM2 252024Z 14009KT 36/07 A2998 RMK A01 T03550074  RH  018%=      5-min Rain = 0
KSM2 252025Z 13011KT 35/07 A2998 RMK A01 T03530072  RH  018%=      5-min Rain = 0
KSM2 252026Z 14013G18KT 35/07 A2998 RMK A01 T03520073  RH  018%=      5-min Rain = 0
KSM2 252027Z 14013KT 35/07 A2998 RMK A01 T03530072  RH  018%=      5-min Rain = 0
KSM2 252028Z 15015KT 35/07 A2998 RMK A01 T03530069  RH  017%=      5-min Rain = 0
KSM2 252029Z 15014KT 35/06 A2998 RMK A01 T03510063  RH  017%=      5-min Rain = 0
KSM2 252030Z 17013KT 35/07 A2998 RMK A01 T03500067  RH  017%=      5-min Rain = 0
KSM2 252031Z 18011KT 35/07 A2998 RMK A01 T03510070  RH  018%=      5-min Rain = 0
KSM2 252032Z 18012KT 35/07 A2998 RMK A01 T03500068  RH  018%=      5-min Rain = 0
KSM2 252033Z 18013KT 35/07 A2998 RMK A01 T03500069  RH  018%=      5-min Rain = 0
KSM2 252034Z 17011G16KT 35/07 A2998 RMK A01 T03490067  RH  017%=      5-min Rain = 0
KSM2 252035Z 16013KT 35/07 A2998 RMK A01 T03490067  RH  018%=      5-min Rain = 0
KSM2 252036Z 17011KT 35/07 A2998 RMK A01 T03470065  RH  017%=      5-min Rain = 0
KSM2 252037Z 17011KT 34/06 A2998 RMK A01 T03440062  RH  017%=      5-min Rain = 0
KSM2 252038Z 15012KT 34/06 A2998 RMK A01 T03430060  RH  017%=      5-min Rain = 0
KSM2 252039Z 16011KT 34/06 A2998 RMK A01 T03420057  RH  017%=      5-min Rain = 0
KSM2 252040Z 15013KT 34/06 A2998 RMK A01 T03410060  RH  017%=      5-min Rain = 0
KSM2 252041Z 17008KT 34/06 A2998 RMK A01 T03400057  RH  017%=      5-min Rain = 0
KSM2 252042Z 19005KT 34/06 A2997 RMK A01 T03400061  RH  018%=      5-min Rain = 0
KSM2 252043Z 15010KT 34/07 A2998 RMK A01 T03420066  RH  018%=      5-min Rain = 0
KSM2 252044Z 15007KT 35/07 A2997 RMK A01 T03450069  RH  018%=      5-min Rain = 0
KSM2 252045Z 15008KT 35/07 A2997 RMK A01 T03480067  RH  018%=      5-min Rain = 0
KSM2 252046Z 15009KT 35/07 A2997 RMK A01 T03490073  RH  018%=      5-min Rain = 0
KSM2 252047Z 15009KT 35/08 A2997 RMK A01 T03500076  RH  019%=      5-min Rain = 0
KSM2 252048Z 15006KT 35/08 A2997 RMK A01 T03520079  RH  019%=      5-min Rain = 0
KSM2 252049Z 13006KT 35/08 A2997 RMK A01 T03530080  RH  019%=      5-min Rain = 0
KSM2 252050Z 15009KT 36/08 A2997 RMK A01 T03560083  RH  019%=      5-min Rain = 0
KSM2 252051Z 15009KT 36/09 A2997 RMK A01 T03580089  RH  019%=      5-min Rain = 0
KSM2 252052Z 14008KT 36/08 A2997 RMK A01 T03570083  RH  019%=      5-min Rain = 0
KSM2 252053Z 19011KT 36/08 A2997 RMK A01 T03560080  RH  018%=      5-min Rain = 0
KSM2 252054Z 18013KT 36/07 A2997 RMK A01 T03550070  RH  017%=      5-min Rain = 0
KSM2 252055Z 19014KT 35/07 A2997 RMK A01 T03540072  RH  018%=      5-min Rain = 0
KSM2 252056Z 20013KT 35/07 A2997 RMK A01 T03520069  RH  017%=      5-min Rain = 0
KSM2 252057Z 20011KT 35/07 A2997 RMK A01 T03490072  RH  018%=      5-min Rain = 0
KSM2 252058Z 17008KT 35/08 A2997 RMK A01 T03500081  RH  019%=      5-min Rain = 0
KSM2 252059Z 19012KT 35/07 A2997 RMK A01 T03520074  RH  018%=      5-min Rain = 0
KSM2 252100Z 19012KT 35/07 A2997 RMK A01 T03520074  RH  018%=      5-min Rain = 0
KSM2 252101Z 19012KT 35/07 A2997 RMK A01 T03520074  RH  018%=      5-min Rain = 0
KSM2 252102Z 17011KT 35/08 A2997 RMK A01 T03530080  RH  019%=      5-min Rain = 0
KSM2 252103Z 16012G17KT 35/08 A2997 RMK A01 T03540077  RH  018%=      5-min Rain = 0
KSM2 252104Z 15013KT 35/08 A2997 RMK A01 T03530082  RH  019%=      5-min Rain = 0
KSM2 252105Z 15011KT 35/08 A2997 RMK A01 T03540084  RH  019%=      5-min Rain = 0
KSM2 252106Z 14011KT 35/08 A2997 RMK A01 T03530079  RH  019%=      5-min Rain = 0
KSM2 252107Z 15011KT 35/08 A2997 RMK A01 T03500076  RH  019%=      5-min Rain = 0
KSM2 252108Z 14010G17KT 35/08 A2997 RMK A01 T03470075  RH  019%=      5-min Rain = 0
KSM2 252109Z 13013KT 34/07 A2997 RMK A01 T03440072  RH  019%=      5-min Rain = 0
KSM2 252110Z 11012KT 34/07 A2997 RMK A01 T03440074  RH  019%=      5-min Rain = 0
KSM2 252111Z 12013G19KT 35/08 A2997 RMK A01 T03450077  RH  019%=      5-min Rain = 0
KSM2 252112Z 14013KT 35/07 A2997 RMK A01 T03450071  RH  018%=      5-min Rain = 0
KSM2 252113Z 14009KT 35/07 A2997 RMK A01 T03450074  RH  019%=      5-min Rain = 0
KSM2 252114Z 13011KT 35/08 A2997 RMK A01 T03470081  RH  019%=      5-min Rain = 0
KSM2 252115Z 13009KT 35/07 A2997 RMK A01 T03500074  RH  018%=      5-min Rain = 0
KSM2 252116Z 15007KT 35/08 A2997 RMK A01 T03500075  RH  018%=      5-min Rain = 0
KSM2 252117Z 17009KT 35/08 A2997 RMK A01 T03510082  RH  019%=      5-min Rain = 0
KSM2 252118Z 16007KT 35/08 A2997 RMK A01 T03520084  RH  019%=      5-min Rain = 0
KSM2 252119Z 14012G20KT 35/08 A2997 RMK A01 T03530080  RH  019%=      5-min Rain = 0
KSM2 252120Z 13011G19KT 35/08 A2996 RMK A01 T03520079  RH  019%=      5-min Rain = 0
KSM2 252121Z 15012G17KT 35/08 A2996 RMK A01 T03520076  RH  018%=      5-min Rain = 0
KSM2 252122Z 14010KT 35/08 A2996 RMK A01 T03510078  RH  019%=      5-min Rain = 0
KSM2 252123Z 15009KT 35/08 A2996 RMK A01 T03510080  RH  019%=      5-min Rain = 0
KSM2 252124Z 14013KT 35/08 A2996 RMK A01 T03530079  RH  019%=      5-min Rain = 0
KSM2 252125Z 14014G19KT 36/08 A2996 RMK A01 T03550076  RH  018%=      5-min Rain = 0
KSM2 252126Z 12015KT 36/07 A2996 RMK A01 T03550074  RH  018%=      5-min Rain = 0
KSM2 252127Z 13012G17KT 36/07 A2996 RMK A01 T03550067  RH  017%=      5-min Rain = 0
KSM2 252128Z 15011KT 35/07 A2996 RMK A01 T03530065  RH  017%=      5-min Rain = 0
KSM2 252129Z 16011G16KT 35/07 A2996 RMK A01 T03530066  RH  017%=      5-min Rain = 0
KSM2 252130Z 15011KT 35/07 A2996 RMK A01 T03530066  RH  017%=      5-min Rain = 0
KSM2 252131Z 15009KT 35/07 A2996 RMK A01 T03540065  RH  017%=      5-min Rain = 0
KSM2 252132Z 14006KT 35/07 A2996 RMK A01 T03520068  RH  017%=      5-min Rain = 0
KSM2 252133Z 13010KT 35/07 A2996 RMK A01 T03510069  RH  018%=      5-min Rain = 0
KSM2 252134Z 14011KT 35/07 A2996 RMK A01 T03510068  RH  017%=      5-min Rain = 0
KSM2 252135Z 16013G18KT 35/10 A2996 RMK A01 T03510095  RH  021%=      5-min Rain = 0
KSM2 252136Z 16011KT 35/11 A2996 RMK A01 T03510109  RH  023%=      5-min Rain = 0
KSM2 252137Z 15016G25KT 35/11 A2995 RMK A01 T03510112  RH  024%=      5-min Rain = 0
KSM2 252138Z 15015KT 35/11 A2996 RMK A01 T03510106  RH  023%=      5-min Rain = 0
KSM2 252139Z 15016G21KT 35/10 A2996 RMK A01 T03470103  RH  023%=      5-min Rain = 0
KSM2 252140Z 16015KT 35/11 A2996 RMK A01 T03450105  RH  023%=      5-min Rain = 0
KSM2 252141Z 16011KT 34/10 A2996 RMK A01 T03430103  RH  023%=      5-min Rain = 0
KSM2 252142Z 16008KT 34/10 A2996 RMK A01 T03420102  RH  023%=      5-min Rain = 0
KSM2 252143Z 15015G20KT 34/11 A2996 RMK A01 T03440105  RH  023%=      5-min Rain = 0
KSM2 252144Z 15014KT 35/10 A2996 RMK A01 T03450101  RH  023%=      5-min Rain = 0
KSM2 252145Z 16014KT 35/10 A2996 RMK A01 T03450103  RH  023%=      5-min Rain = 0
KSM2 252146Z 16013KT 35/10 A2996 RMK A01 T03450104  RH  023%=      5-min Rain = 0
KSM2 252147Z 17011KT 35/11 A2996 RMK A01 T03450105  RH  023%=      5-min Rain = 0
KSM2 252148Z 16010KT 35/11 A2996 RMK A01 T03450105  RH  023%=      5-min Rain = 0
KSM2 252149Z 16009KT 35/11 A2996 RMK A01 T03450109  RH  024%=      5-min Rain = 0
KSM2 252150Z 14010KT 35/11 A2996 RMK A01 T03480109  RH  023%=      5-min Rain = 0
KSM2 252151Z 14008KT 35/10 A2996 RMK A01 T03500102  RH  022%=      5-min Rain = 0
KSM2 252152Z 14008KT 35/10 A2996 RMK A01 T03500100  RH  022%=      5-min Rain = 0
KSM2 252153Z 15012KT 35/10 A2995 RMK A01 T03480104  RH  023%=      5-min Rain = 0
KSM2 252154Z 17012KT 35/11 A2996 RMK A01 T03480106  RH  023%=      5-min Rain = 0
KSM2 252155Z 16011KT 35/10 A2996 RMK A01 T03490101  RH  022%=      5-min Rain = 0
KSM2 252156Z 16008G14KT 35/11 A2995 RMK A01 T03480109  RH  023%=      5-min Rain = 0
KSM2 252157Z 14011KT 35/12 A2995 RMK A01 T03510123  RH  025%=      5-min Rain = 0
KSM2 252158Z 13011KT 35/13 A2995 RMK A01 T03510126  RH  026%=      5-min Rain = 0
KSM2 252159Z 15011KT 35/13 A2995 RMK A01 T03510125  RH  026%=      5-min Rain = 0
KSM2 252200Z 17014KT 35/13 A2995 RMK A01 T03500126  RH  026%=      5-min Rain = 0
KSM2 252201Z 16016G22KT 35/13 A2995 RMK A01 T03480125  RH  026%=      5-min Rain = 0
KSM2 252202Z 16016G22KT 35/13 A2995 RMK A01 T03470126  RH  026%=      5-min Rain = 0
KSM2 252203Z 15018KT 35/13 A2995 RMK A01 T03450127  RH  027%=      5-min Rain = 0
KSM2 252204Z 16016G22KT 35/13 A2995 RMK A01 T03450125  RH  026%=      5-min Rain = 0
KSM2 252205Z 16017G22KT 34/12 A2995 RMK A01 T03440120  RH  026%=      5-min Rain = 0
KSM2 252206Z 15016G21KT 34/12 A2995 RMK A01 T03400121  RH  026%=      5-min Rain = 0
KSM2 252207Z 15016KT 34/12 A2995 RMK A01 T03400121  RH  027%=      5-min Rain = 0
KSM2 252208Z 14015G21KT 34/12 A2995 RMK A01 T03400120  RH  026%=      5-min Rain = 0
KSM2 252209Z 14016KT 34/12 A2995 RMK A01 T03420122  RH  026%=      5-min Rain = 0
KSM2 252210Z 14015KT 34/12 A2995 RMK A01 T03420124  RH  027%=      5-min Rain = 0
KSM2 252211Z 14014KT 34/13 A2995 RMK A01 T03420125  RH  027%=      5-min Rain = 0
KSM2 252212Z 15015KT 34/13 A2995 RMK A01 T03420125  RH  027%=      5-min Rain = 0
KSM2 252213Z 14017G22KT 34/12 A2995 RMK A01 T03410123  RH  027%=      5-min Rain = 0
KSM2 252214Z 14018KT 34/12 A2995 RMK A01 T03400121  RH  027%=      5-min Rain = 0
KSM2 252215Z 14017KT 34/12 A2995 RMK A01 T03370119  RH  027%=      5-min Rain = 0
KSM2 252216Z 14013KT 34/12 A2995 RMK A01 T03350120  RH  027%=      5-min Rain = 0
KSM2 252217Z 14012KT 33/12 A2995 RMK A01 T03340117  RH  027%=      5-min Rain = 0
KSM2 252218Z 14015KT 33/12 A2995 RMK A01 T03330116  RH  027%=      5-min Rain = 0
KSM2 252219Z 14012KT 33/11 A2995 RMK A01 T03320114  RH  026%=      5-min Rain = 0
KSM2 252220Z 13009G15KT 33/12 A2995 RMK A01 T03340118  RH  027%=      5-min Rain = 0
KSM2 252221Z 13014KT 34/12 A2995 RMK A01 T03380117  RH  026%=      5-min Rain = 0
KSM2 252222Z 14013KT 34/12 A2995 RMK A01 T03400115  RH  025%=      5-min Rain = 0
KSM2 252223Z 13009KT 34/12 A2995 RMK A01 T03390117  RH  026%=      5-min Rain = 0
KSM2 252224Z 15007KT 34/12 A2995 RMK A01 T03410119  RH  026%=      5-min Rain = 0
KSM2 252225Z 16011KT 34/12 A2995 RMK A01 T03440117  RH  025%=      5-min Rain = 0
KSM2 252226Z 15009KT 35/12 A2995 RMK A01 T03450116  RH  025%=      5-min Rain = 0
KSM2 252227Z 15012KT 35/12 A2995 RMK A01 T03460116  RH  025%=      5-min Rain = 0
KSM2 252228Z 15010KT 35/12 A2995 RMK A01 T03460118  RH  025%=      5-min Rain = 0
KSM2 252229Z 15013KT 35/11 A2995 RMK A01 T03470114  RH  024%=      5-min Rain = 0
KSM2 252230Z 15013KT 35/11 A2995 RMK A01 T03470111  RH  024%=      5-min Rain = 0
KSM2 252231Z 15015G20KT 35/11 A2995 RMK A01 T03460110  RH  024%=      5-min Rain = 0
KSM2 252232Z 15014KT 34/11 A2995 RMK A01 T03440106  RH  023%=      5-min Rain = 0
KSM2 252233Z 14014KT 34/11 A2995 RMK A01 T03420106  RH  024%=      5-min Rain = 0
KSM2 252234Z 13013G18KT 34/11 A2995 RMK A01 T03420106  RH  024%=      5-min Rain = 0
KSM2 252235Z 13016KT 34/11 A2995 RMK A01 T03440108  RH  024%=      5-min Rain = 0
KSM2 252236Z 14015G20KT 35/11 A2995 RMK A01 T03450107  RH  024%=      5-min Rain = 0
KSM2 252237Z 14014KT 35/11 A2995 RMK A01 T03450107  RH  023%=      5-min Rain = 0
KSM2 252238Z 13012KT 35/11 A2995 RMK A01 T03450107  RH  024%=      5-min Rain = 0
KSM2 252239Z 14015KT 35/11 A2995 RMK A01 T03450110  RH  024%=      5-min Rain = 0
KSM2 252240Z 14016KT 35/11 A2995 RMK A01 T03450110  RH  024%=      5-min Rain = 0
KSM2 252241Z 15018G23KT 34/10 A2995 RMK A01 T03440102  RH  023%=      5-min Rain = 0
KSM2 252242Z 13017G23KT 34/10 A2995 RMK A01 T03410102  RH  023%=      5-min Rain = 0
KSM2 252243Z 15017G22KT 34/10 A2995 RMK A01 T03400103  RH  023%=      5-min Rain = 0
KSM2 252244Z 14013G18KT 34/11 A2995 RMK A01 T03410105  RH  024%=      5-min Rain = 0
KSM2 252245Z 14012KT 34/10 A2995 RMK A01 T03420104  RH  023%=      5-min Rain = 0
KSM2 252246Z 14012KT 34/11 A2995 RMK A01 T03420106  RH  024%=      5-min Rain = 0
KSM2 252247Z 14014KT 34/11 A2995 RMK A01 T03430107  RH  024%=      5-min Rain = 0
KSM2 252248Z 13014KT 34/11 A2994 RMK A01 T03420106  RH  024%=      5-min Rain = 0
KSM2 252249Z 14015KT 34/11 A2994 RMK A01 T03410105  RH  024%=      5-min Rain = 0
KSM2 252250Z 14012G18KT 34/11 A2994 RMK A01 T03390107  RH  024%=      5-min Rain = 0
KSM2 252251Z 14015KT 34/11 A2994 RMK A01 T03390110  RH  025%=      5-min Rain = 0
KSM2 252252Z 13014KT 34/11 A2994 RMK A01 T03380109  RH  025%=      5-min Rain = 0
KSM2 252253Z 15012KT 34/11 A2994 RMK A01 T03380111  RH  025%=      5-min Rain = 0
KSM2 252254Z 14013KT 34/11 A2994 RMK A01 T03390110  RH  025%=      5-min Rain = 0
KSM2 252255Z 14013G23KT 34/11 A2994 RMK A01 T03380110  RH  025%=      5-min Rain = 0
KSM2 252256Z 15016KT 34/11 A2994 RMK A01 T03370107  RH  025%=      5-min Rain = 0
KSM2 252257Z 15016KT 34/10 A2994 RMK A01 T03380101  RH  024%=      5-min Rain = 0
KSM2 252258Z 15013KT 34/10 A2994 RMK A01 T03390100  RH  023%=      5-min Rain = 0
KSM2 252259Z 14018G23KT 34/10 A2994 RMK A01 T03390102  RH  023%=      5-min Rain = 0
KSM2 252300Z 13016G21KT 34/11 A2994 RMK A01 T03400105  RH  024%=      5-min Rain = 0
KSM2 252301Z 13014G19KT 34/11 A2994 RMK A01 T03400105  RH  024%=      5-min Rain = 0
KSM2 252302Z 14016KT 34/10 A2994 RMK A01 T03410104  RH  024%=      5-min Rain = 0
KSM2 252303Z 14015G20KT 34/10 A2994 RMK A01 T03400104  RH  024%=      5-min Rain = 0
KSM2 252304Z 15016KT 34/11 A2994 RMK A01 T03400105  RH  024%=      5-min Rain = 0
KSM2 252305Z 15016G22KT 34/10 A2994 RMK A01 T03400103  RH  024%=      5-min Rain = 0
KSM2 252306Z 13015KT 34/10 A2994 RMK A01 T03390104  RH  024%=      5-min Rain = 0
KSM2 252307Z 14014G20KT 34/10 A2994 RMK A01 T03400104  RH  024%=      5-min Rain = 0
KSM2 252308Z 14016KT 34/10 A2994 RMK A01 T03410103  RH  023%=      5-min Rain = 0
KSM2 252309Z 15014KT 34/10 A2994 RMK A01 T03400103  RH  024%=      5-min Rain = 0
KSM2 252310Z 15012KT 34/10 A2994 RMK A01 T03390104  RH  024%=      5-min Rain = 0
KSM2 252311Z 14011G18KT 34/11 A2994 RMK A01 T03390107  RH  024%=      5-min Rain = 0
KSM2 252312Z 15019KT 34/11 A2994 RMK A01 T03410105  RH  024%=      5-min Rain = 0
KSM2 252313Z 15017KT 34/10 A2994 RMK A01 T03400103  RH  023%=      5-min Rain = 0
KSM2 252314Z 13016KT 34/10 A2994 RMK A01 T03390100  RH  023%=      5-min Rain = 0
KSM2 252315Z 14016KT 34/10 A2994 RMK A01 T03380099  RH  023%=      5-min Rain = 0
KSM2 252316Z 14012G18KT 34/10 A2993 RMK A01 T03380100  RH  023%=      5-min Rain = 0
KSM2 252317Z 14015G20KT 34/10 A2993 RMK A01 T03390103  RH  024%=      5-min Rain = 0
KSM2 252318Z 15015KT 34/10 A2993 RMK A01 T03400103  RH  024%=      5-min Rain = 0
KSM2 252319Z 14015KT 34/10 A2993 RMK A01 T03390104  RH  024%=      5-min Rain = 0
KSM2 252320Z 14016KT 34/10 A2993 RMK A01 T03380104  RH  024%=      5-min Rain = 0
KSM2 252321Z 14016G22KT 34/10 A2993 RMK A01 T03380103  RH  024%=      5-min Rain = 0
KSM2 252322Z 14013KT 34/11 A2993 RMK A01 T03390105  RH  024%=      5-min Rain = 0
KSM2 252323Z 16016KT 34/11 A2993 RMK A01 T03390106  RH  024%=      5-min Rain = 0
KSM2 252324Z 15014KT 34/11 A2993 RMK A01 T03390105  RH  024%=      5-min Rain = 0
KSM2 252325Z 14012KT 34/11 A2993 RMK A01 T03390105  RH  024%=      5-min Rain = 0
KSM2 252326Z 13016KT 34/11 A2993 RMK A01 T03390107  RH  024%=      5-min Rain = 0
KSM2 252327Z 14016G22KT 34/11 A2993 RMK A01 T03380107  RH  024%=      5-min Rain = 0
KSM2 252328Z 14018G27KT 34/11 A2993 RMK A01 T03380108  RH  025%=      5-min Rain = 0
KSM2 252329Z 14016KT 34/11 A2993 RMK A01 T03370110  RH  025%=      5-min Rain = 0
KSM2 252330Z 15016KT 34/11 A2993 RMK A01 T03370112  RH  025%=      5-min Rain = 0
KSM2 252331Z 14015G20KT 34/11 A2993 RMK A01 T03370111  RH  025%=      5-min Rain = 0
KSM2 252332Z 16015G20KT 34/11 A2993 RMK A01 T03370111  RH  025%=      5-min Rain = 0
KSM2 252333Z 16017G23KT 34/11 A2993 RMK A01 T03370112  RH  025%=      5-min Rain = 0
KSM2 252334Z 14016G21KT 34/11 A2993 RMK A01 T03360112  RH  026%=      5-min Rain = 0
KSM2 252335Z 16015KT 34/11 A2993 RMK A01 T03370112  RH  025%=      5-min Rain = 0
KSM2 252336Z 16016KT 34/11 A2993 RMK A01 T03380108  RH  025%=      5-min Rain = 0
KSM2 252337Z 16016KT 34/11 A2993 RMK A01 T03370108  RH  025%=      5-min Rain = 0
KSM2 252338Z 15011KT 34/11 A2993 RMK A01 T03360109  RH  025%=      5-min Rain = 0
KSM2 252339Z 14017G23KT 34/11 A2992 RMK A01 T03370111  RH  025%=      5-min Rain = 0
KSM2 252340Z 14017G23KT 34/11 A2992 RMK A01 T03380109  RH  025%=      5-min Rain = 0
KSM2 252341Z 14014G20KT 34/11 A2992 RMK A01 T03380110  RH  025%=      5-min Rain = 0
KSM2 252342Z 14014KT 34/11 A2992 RMK A01 T03370110  RH  025%=      5-min Rain = 0
KSM2 252343Z 15014KT 34/11 A2992 RMK A01 T03370112  RH  025%=      5-min Rain = 0
KSM2 252344Z 14014G22KT 34/11 A2992 RMK A01 T03370114  RH  026%=      5-min Rain = 0
KSM2 252345Z 14014G20KT 34/12 A2992 RMK A01 T03370116  RH  026%=      5-min Rain = 0
KSM2 252346Z 15017G23KT 34/11 A2993 RMK A01 T03370113  RH  026%=      5-min Rain = 0
KSM2 252347Z 15014G19KT 34/11 A2992 RMK A01 T03360114  RH  026%=      5-min Rain = 0
KSM2 252348Z 16014KT 34/12 A2992 RMK A01 T03350115  RH  026%=      5-min Rain = 0
KSM2 252349Z 16017G22KT 34/12 A2992 RMK A01 T03350120  RH  027%=      5-min Rain = 0
KSM2 252350Z 14016KT 33/13 A2992 RMK A01 T03340125  RH  028%=      5-min Rain = 0
KSM2 252351Z 14015KT 33/13 A2992 RMK A01 T03330128  RH  029%=      5-min Rain = 0
KSM2 252352Z 14012KT 33/13 A2992 RMK A01 T03320129  RH  029%=      5-min Rain = 0
KSM2 252353Z 14013G18KT 33/13 A2992 RMK A01 T03320129  RH  029%=      5-min Rain = 0
KSM2 252354Z 15017G24KT 33/13 A2992 RMK A01 T03320132  RH  030%=      5-min Rain = 0
KSM2 252355Z 14015KT 33/14 A2992 RMK A01 T03320136  RH  031%=      5-min Rain = 0
KSM2 252356Z 13013KT 33/14 A2992 RMK A01 T03310139  RH  031%=      5-min Rain = 0
KSM2 252357Z 14016G22KT 33/14 A2992 RMK A01 T03310139  RH  031%=      5-min Rain = 0
KSM2 252358Z 14015G21KT 33/14 A2992 RMK A01 T03300140  RH  032%=      5-min Rain = 0
KSM2 252359Z 15018G23KT 33/14 A2992 RMK A01 T03300141  RH  032%=      5-min Rain = 0
KSM2 260000Z 15016G21KT 33/14 A2992 RMK A01 T03300136  RH  031%=      5-min Rain = 0
KSM2 260001Z 15015KT 33/14 A2992 RMK A01 T03310135  RH  031%=      5-min Rain = 0
KSM2 260002Z 15018G24KT 33/14 A2992 RMK A01 T03310137  RH  031%=      5-min Rain = 0
KSM2 260003Z 14017KT 33/14 A2992 RMK A01 T03290138  RH  031%=      5-min Rain = 0
KSM2 260004Z 14017KT 33/14 A2992 RMK A01 T03290139  RH  032%=      5-min Rain = 0
KSM2 260005Z 15015KT 33/14 A2992 RMK A01 T03280136  RH  031%=      5-min Rain = 0
KSM2 260006Z 15016G21KT 33/14 A2992 RMK A01 T03290135  RH  031%=      5-min Rain = 0
KSM2 260007Z 15019KT 33/14 A2992 RMK A01 T03290136  RH  031%=      5-min Rain = 0
KSM2 260008Z 16019KT 33/13 A2992 RMK A01 T03280133  RH  031%=      5-min Rain = 0
KSM2 260009Z 14018KT 33/13 A2992 RMK A01 T03280131  RH  030%=      5-min Rain = 0
KSM2 260010Z 14015KT 33/13 A2992 RMK A01 T03280129  RH  030%=      5-min Rain = 0
KSM2 260011Z 16014G19KT 33/13 A2992 RMK A01 T03280133  RH  031%=      5-min Rain = 0
KSM2 260012Z 15018G25KT 33/13 A2992 RMK A01 T03290134  RH  031%=      5-min Rain = 0
KSM2 260013Z 15018G24KT 33/13 A2992 RMK A01 T03280134  RH  031%=      5-min Rain = 0
KSM2 260014Z 15014KT 33/14 A2992 RMK A01 T03270136  RH  031%=      5-min Rain = 0
KSM2 260015Z 15016KT 33/14 A2992 RMK A01 T03270136  RH  032%=      5-min Rain = 0
KSM2 260016Z 14014KT 33/14 A2992 RMK A01 T03280140  RH  032%=      5-min Rain = 0
KSM2 260017Z 14016G24KT 33/14 A2992 RMK A01 T03280142  RH  033%=      5-min Rain = 0
KSM2 260018Z 15016G23KT 33/14 A2992 RMK A01 T03270141  RH  032%=      5-min Rain = 0
KSM2 260019Z 14016KT 33/14 A2992 RMK A01 T03270142  RH  033%=      5-min Rain = 0
KSM2 260020Z 14015KT 33/14 A2992 RMK A01 T03260143  RH  033%=      5-min Rain = 0
KSM2 260021Z 14018KT 33/14 A2992 RMK A01 T03260144  RH  033%=      5-min Rain = 0
KSM2 260022Z 14019G26KT 33/14 A2992 RMK A01 T03250144  RH  033%=      5-min Rain = 0
KSM2 260023Z 15017KT 32/14 A2992 RMK A01 T03240144  RH  034%=      5-min Rain = 0
KSM2 260024Z 16016KT 32/14 A2992 RMK A01 T03240144  RH  034%=      5-min Rain = 0
KSM2 260025Z 14016KT 32/14 A2992 RMK A01 T03240144  RH  034%=      5-min Rain = 0
KSM2 260026Z 14019G24KT 32/14 A2992 RMK A01 T03240144  RH  034%=      5-min Rain = 0
KSM2 260027Z 15015G21KT 32/14 A2992 RMK A01 T03230144  RH  034%=      5-min Rain = 0
KSM2 260028Z 14017G23KT 32/15 A2992 RMK A01 T03230146  RH  034%=      5-min Rain = 0
KSM2 260029Z 16016G23KT 32/15 A2992 RMK A01 T03230147  RH  035%=      5-min Rain = 0
KSM2 260030Z 15017G22KT 32/14 A2992 RMK A01 T03230144  RH  034%=      5-min Rain = 0
KSM2 260031Z 15015KT 32/14 A2992 RMK A01 T03220143  RH  034%=      5-min Rain = 0
KSM2 260032Z 15017G25KT 32/15 A2992 RMK A01 T03220146  RH  034%=      5-min Rain = 0
KSM2 260033Z 14019KT 32/15 A2993 RMK A01 T03220148  RH  035%=      5-min Rain = 0
KSM2 260034Z 14018KT 32/15 A2993 RMK A01 T03210150  RH  036%=      5-min Rain = 0
KSM2 260035Z 14019G25KT 32/15 A2993 RMK A01 T03200149  RH  036%=      5-min Rain = 0
KSM2 260036Z 15016G23KT 32/15 A2993 RMK A01 T03190149  RH  036%=      5-min Rain = 0
KSM2 260037Z 15017G23KT 32/15 A2993 RMK A01 T03190149  RH  036%=      5-min Rain = 0
KSM2 260038Z 14018G24KT 32/15 A2993 RMK A01 T03190149  RH  036%=      5-min Rain = 0
KSM2 260039Z 14015KT 32/15 A2993 RMK A01 T03190150  RH  036%=      5-min Rain = 0
KSM2 260040Z 15015KT 32/15 A2993 RMK A01 T03190150  RH  036%=      5-min Rain = 0
KSM2 260041Z 14013G18KT 32/15 A2993 RMK A01 T03190150  RH  036%=      5-min Rain = 0
KSM2 260042Z 14015G20KT 32/15 A2993 RMK A01 T03190149  RH  036%=      5-min Rain = 0
KSM2 260043Z 14017G22KT 32/15 A2993 RMK A01 T03190149  RH  036%=      5-min Rain = 0
KSM2 260044Z 14014G20KT 32/15 A2993 RMK A01 T03180150  RH  036%=      5-min Rain = 0
KSM2 260045Z 14017G22KT 32/15 A2993 RMK A01 T03180150  RH  036%=      5-min Rain = 0
KSM2 260046Z 15019G25KT 32/15 A2994 RMK A01 T03170150  RH  036%=      5-min Rain = 0
KSM2 260047Z 14015KT 32/15 A2994 RMK A01 T03160150  RH  037%=      5-min Rain = 0
KSM2 260048Z 13017G22KT 32/15 A2994 RMK A01 T03160150  RH  037%=      5-min Rain = 0
KSM2 260049Z 13015KT 32/15 A2994 RMK A01 T03150150  RH  037%=      5-min Rain = 0
KSM2 260050Z 14014KT 32/15 A2994 RMK A01 T03150150  RH  037%=      5-min Rain = 0
KSM2 260051Z 13017G22KT 31/15 A2994 RMK A01 T03140150  RH  037%=      5-min Rain = 0
KSM2 260052Z 13017G22KT 31/15 A2994 RMK A01 T03140152  RH  037%=      5-min Rain = 0
KSM2 260053Z 14013KT 31/15 A2994 RMK A01 T03140153  RH  038%=      5-min Rain = 0
KSM2 260054Z 14016KT 31/15 A2994 RMK A01 T03140153  RH  038%=      5-min Rain = 0
KSM2 260055Z 13012KT 31/15 A2994 RMK A01 T03140153  RH  038%=      5-min Rain = 0
KSM2 260056Z 13012G18KT 31/15 A2994 RMK A01 T03130154  RH  038%=      5-min Rain = 0
KSM2 260057Z 13013G21KT 31/15 A2994 RMK A01 T03130154  RH  038%=      5-min Rain = 0
KSM2 260058Z 14018KT 31/15 A2994 RMK A01 T03130152  RH  038%=      5-min Rain = 0
KSM2 260059Z 13017G22KT 31/15 A2994 RMK A01 T03120152  RH  038%=      5-min Rain = 0
KSM2 260100Z 14015G22KT 31/15 A2994 RMK A01 T03120152  RH  038%=      5-min Rain = 0
KSM2 260101Z 14015G20KT 31/15 A2994 RMK A01 T03120151  RH  038%=      5-min Rain = 0
KSM2 260102Z 14014KT 31/15 A2994 RMK A01 T03120151  RH  038%=      5-min Rain = 0
KSM2 260103Z 13015KT 31/15 A2994 RMK A01 T03120151  RH  038%=      5-min Rain = 0
KSM2 260104Z 13015KT 31/15 A2994 RMK A01 T03110151  RH  038%=      5-min Rain = 0
KSM2 260105Z 13012G17KT 31/15 A2994 RMK A01 T03110151  RH  038%=      5-min Rain = 0
KSM2 260106Z 14012KT 31/15 A2995 RMK A01 T03110151  RH  038%=      5-min Rain = 0
KSM2 260107Z 14014G21KT 31/15 A2995 RMK A01 T03100151  RH  038%=      5-min Rain = 0
KSM2 260108Z 14016G22KT 31/15 A2995 RMK A01 T03100150  RH  038%=      5-min Rain = 0
KSM2 260109Z 14014KT 31/15 A2995 RMK A01 T03100150  RH  038%=      5-min Rain = 0
KSM2 260110Z 14013KT 31/15 A2995 RMK A01 T03100150  RH  038%=      5-min Rain = 0
KSM2 260111Z 14015G20KT 31/15 A2995 RMK A01 T03100151  RH  038%=      5-min Rain = 0
KSM2 260112Z 14017G24KT 31/15 A2995 RMK A01 T03100150  RH  038%=      5-min Rain = 0
KSM2 260113Z 14018KT 31/15 A2995 RMK A01 T03090150  RH  038%=      5-min Rain = 0
KSM2 260114Z 13015G20KT 31/15 A2995 RMK A01 T03090150  RH  038%=      5-min Rain = 0
KSM2 260115Z 13013KT 31/15 A2995 RMK A01 T03080151  RH  038%=      5-min Rain = 0
KSM2 260116Z 13018G25KT 31/15 A2995 RMK A01 T03080151  RH  039%=      5-min Rain = 0
KSM2 260117Z 13018KT 31/15 A2995 RMK A01 T03080150  RH  039%=      5-min Rain = 0
KSM2 260118Z 13015G22KT 31/15 A2995 RMK A01 T03070150  RH  039%=      5-min Rain = 0
KSM2 260119Z 13016KT 31/15 A2995 RMK A01 T03070151  RH  039%=      5-min Rain = 0
KSM2 260120Z 13015G21KT 31/15 A2995 RMK A01 T03070151  RH  039%=      5-min Rain = 0
KSM2 260121Z 14015KT 31/15 A2995 RMK A01 T03060151  RH  039%=      5-min Rain = 0
KSM2 260122Z 13018KT 31/15 A2995 RMK A01 T03060151  RH  039%=      5-min Rain = 0
KSM2 260123Z 13019G24KT 31/15 A2995 RMK A01 T03060151  RH  039%=      5-min Rain = 0
KSM2 260124Z 14017KT 31/15 A2996 RMK A01 T03060151  RH  039%=      5-min Rain = 0
KSM2 260125Z 14015G20KT 31/15 A2996 RMK A01 T03060152  RH  039%=      5-min Rain = 0
KSM2 260126Z 13019G24KT 31/15 A2996 RMK A01 T03050152  RH  039%=      5-min Rain = 0
KSM2 260127Z 14014G19KT 31/15 A2996 RMK A01 T03050152  RH  040%=      5-min Rain = 0
KSM2 260128Z 14015KT 30/15 A2996 RMK A01 T03040153  RH  040%=      5-min Rain = 0
KSM2 260129Z 14015G25KT 30/15 A2996 RMK A01 T03040153  RH  040%=      5-min Rain = 0
KSM2 260130Z 14017G22KT 30/15 A2996 RMK A01 T03040153  RH  040%=      5-min Rain = 0
KSM2 260131Z 13016G21KT 30/15 A2996 RMK A01 T03030154  RH  040%=      5-min Rain = 0
KSM2 260132Z 13019G26KT 30/16 A2996 RMK A01 T03030155  RH  041%=      5-min Rain = 0
KSM2 260133Z 13016KT 30/16 A2996 RMK A01 T03020155  RH  041%=      5-min Rain = 0
KSM2 260134Z 13014KT 30/16 A2996 RMK A01 T03010155  RH  041%=      5-min Rain = 0
KSM2 260135Z 13016G21KT 30/16 A2996 RMK A01 T03000155  RH  041%=      5-min Rain = 0
KSM2 260136Z 13016G22KT 30/16 A2996 RMK A01 T03000156  RH  042%=      5-min Rain = 0
KSM2 260137Z 13015G20KT 30/16 A2996 RMK A01 T03000156  RH  042%=      5-min Rain = 0
KSM2 260138Z 13014G21KT 30/16 A2996 RMK A01 T03000156  RH  042%=      5-min Rain = 0
KSM2 260139Z 13014KT 30/16 A2996 RMK A01 T02990156  RH  042%=      5-min Rain = 0
KSM2 260140Z 13015G21KT 30/16 A2996 RMK A01 T02980156  RH  042%=      5-min Rain = 0
KSM2 260141Z 13013G18KT 30/16 A2996 RMK A01 T02980156  RH  042%=      5-min Rain = 0
KSM2 260142Z 13015G20KT 30/16 A2996 RMK A01 T02980156  RH  042%=      5-min Rain = 0
KSM2 260143Z 14014G19KT 30/16 A2997 RMK A01 T02970156  RH  042%=      5-min Rain = 0
KSM2 260144Z 13015G22KT 30/16 A2997 RMK A01 T02970156  RH  042%=      5-min Rain = 0
KSM2 260145Z 13016KT 30/16 A2997 RMK A01 T02970156  RH  043%=      5-min Rain = 0
KSM2 260146Z 13016G21KT 30/16 A2997 RMK A01 T02960156  RH  043%=      5-min Rain = 0
KSM2 260147Z 13018G25KT 30/16 A2997 RMK A01 T02960156  RH  043%=      5-min Rain = 0
KSM2 260148Z 13015G21KT 30/16 A2997 RMK A01 T02960155  RH  042%=      5-min Rain = 0
KSM2 260149Z 13018G26KT 30/16 A2997 RMK A01 T02960155  RH  043%=      5-min Rain = 0
KSM2 260150Z 13017G26KT 30/16 A2997 RMK A01 T02950155  RH  043%=      5-min Rain = 0
KSM2 260151Z 13014G20KT 30/16 A2997 RMK A01 T02950156  RH  043%=      5-min Rain = 0
KSM2 260152Z 13014G20KT 30/16 A2997 RMK A01 T02950156  RH  043%=      5-min Rain = 0
KSM2 260153Z 13017G22KT 29/16 A2997 RMK A01 T02940156  RH  043%=      5-min Rain = 0
KSM2 260154Z 13017G22KT 29/16 A2997 RMK A01 T02930157  RH  044%=      5-min Rain = 0
KSM2 260155Z 12017G22KT 29/16 A2997 RMK A01 T02930158  RH  044%=      5-min Rain = 0
KSM2 260156Z 12016G21KT 29/16 A2997 RMK A01 T02920159  RH  045%=      5-min Rain = 0
KSM2 260157Z 13013G20KT 29/16 A2997 RMK A01 T02910160  RH  045%=      5-min Rain = 0
KSM2 260158Z 12014G20KT 29/16 A2998 RMK A01 T02900161  RH  045%=      5-min Rain = 0
KSM2 260159Z 13014G22KT 29/16 A2998 RMK A01 T02890161  RH  046%=      5-min Rain = 0
KSM2 260200Z 13014KT 29/16 A2998 RMK A01 T02890161  RH  046%=      5-min Rain = 0
KSM2 260201Z 12014G19KT 29/16 A2998 RMK A01 T02880161  RH  046%=      5-min Rain = 0
KSM2 260202Z 12015KT 29/16 A2998 RMK A01 T02880161  RH  046%=      5-min Rain = 0
KSM2 260203Z 13010KT 29/16 A2998 RMK A01 T02870161  RH  046%=      5-min Rain = 0
KSM2 260204Z 13016G22KT 29/16 A2998 RMK A01 T02870161  RH  046%=      5-min Rain = 0
KSM2 260205Z 12014G21KT 29/16 A2998 RMK A01 T02870161  RH  046%=      5-min Rain = 0
KSM2 260206Z 12016G22KT 29/16 A2999 RMK A01 T02860161  RH  046%=      5-min Rain = 0
KSM2 260207Z 13012G18KT 29/16 A2999 RMK A01 T02860160  RH  047%=      5-min Rain = 0
KSM2 260208Z 12014KT 29/16 A2999 RMK A01 T02850160  RH  047%=      5-min Rain = 0
KSM2 260209Z 12012KT 29/16 A2999 RMK A01 T02850161  RH  047%=      5-min Rain = 0
KSM2 260210Z 12014G19KT 28/16 A2999 RMK A01 T02840161  RH  047%=      5-min Rain = 0
KSM2 260211Z 12012KT 28/16 A2999 RMK A01 T02840161  RH  047%=      5-min Rain = 0
KSM2 260212Z 12014G19KT 28/16 A2999 RMK A01 T02830161  RH  047%=      5-min Rain = 0
KSM2 260213Z 12012G19KT 28/16 A2999 RMK A01 T02830160  RH  047%=      5-min Rain = 0
KSM2 260214Z 12013G19KT 28/16 A2999 RMK A01 T02820160  RH  047%=      5-min Rain = 0
KSM2 260215Z 13015KT 28/16 A2999 RMK A01 T02820160  RH  048%=      5-min Rain = 0
KSM2 260216Z 12014G23KT 28/16 A2999 RMK A01 T02820159  RH  047%=      5-min Rain = 0
KSM2 260217Z 12015G21KT 28/16 A2999 RMK A01 T02810159  RH  047%=      5-min Rain = 0
KSM2 260218Z 12014KT 28/16 A2999 RMK A01 T02810158  RH  047%=      5-min Rain = 0
KSM2 260219Z 12013G20KT 28/16 A2999 RMK A01 T02810158  RH  047%=      5-min Rain = 0
KSM2 260220Z 13014G20KT 28/16 A30 RMK A01 T02800158  RH  047%=      5-min Rain = 0
KSM2 260221Z 13015KT 28/16 A30 RMK A01 T02810158  RH  047%=      5-min Rain = 0
KSM2 260222Z 12015G24KT 28/16 A30 RMK A01 T02800157  RH  047%=      5-min Rain = 0
KSM2 260223Z 13016KT 28/16 A30 RMK A01 T02800157  RH  047%=      5-min Rain = 0
KSM2 260224Z 12013G18KT 28/16 A30 RMK A01 T02800157  RH  047%=      5-min Rain = 0
KSM2 260225Z 12016G21KT 28/16 A30 RMK A01 T02790157  RH  047%=      5-min Rain = 0
KSM2 260226Z 12014G20KT 28/16 A30 RMK A01 T02790156  RH  047%=      5-min Rain = 0
KSM2 260227Z 11013G18KT 28/16 A30 RMK A01 T02780156  RH  047%=      5-min Rain = 0
KSM2 260228Z 12012KT 28/16 A30 RMK A01 T02780156  RH  047%=      5-min Rain = 0
KSM2 260229Z 12018G26KT 28/16 A30 RMK A01 T02780155  RH  047%=      5-min Rain = 0
KSM2 260230Z 12017G26KT 28/16 A30 RMK A01 T02780155  RH  047%=      5-min Rain = 0
KSM2 260231Z 12016G21KT 28/16 A30 RMK A01 T02780155  RH  047%=      5-min Rain = 0
KSM2 260232Z 12013G18KT 28/16 A30 RMK A01 T02780155  RH  047%=      5-min Rain = 0
KSM2 260233Z 12015KT 28/16 A30 RMK A01 T02770155  RH  047%=      5-min Rain = 0
KSM2 260234Z 12013G18KT 28/16 A30 RMK A01 T02770155  RH  047%=      5-min Rain = 0
KSM2 260235Z 12013KT 28/16 A30 RMK A01 T02770155  RH  047%=      5-min Rain = 0
KSM2 260236Z 12012G19KT 28/16 A30 RMK A01 T02760155  RH  047%=      5-min Rain = 0
KSM2 260237Z 11013G19KT 28/16 A30 RMK A01 T02760155  RH  047%=      5-min Rain = 0
KSM2 260238Z 11015G22KT 28/15 A30 RMK A01 T02760154  RH  048%=      5-min Rain = 0
KSM2 260239Z 12016KT 28/15 A3001 RMK A01 T02750154  RH  047%=      5-min Rain = 0
KSM2 260240Z 12013KT 28/15 A3001 RMK A01 T02760154  RH  047%=      5-min Rain = 0
KSM2 260241Z 12012G17KT 28/15 A3001 RMK A01 T02760154  RH  047%=      5-min Rain = 0
KSM2 260242Z 12013KT 28/15 A3001 RMK A01 T02750154  RH  048%=      5-min Rain = 0
KSM2 260243Z 12013KT 28/15 A3001 RMK A01 T02750154  RH  048%=      5-min Rain = 0
KSM2 260244Z 12013G20KT 27/15 A3001 RMK A01 T02740154  RH  048%=      5-min Rain = 0
KSM2 260245Z 12013G18KT 27/15 A3001 RMK A01 T02740154  RH  048%=      5-min Rain = 0
KSM2 260246Z 12013KT 27/15 A3001 RMK A01 T02740154  RH  048%=      5-min Rain = 0
KSM2 260247Z 13012G18KT 27/15 A3001 RMK A01 T02740154  RH  048%=      5-min Rain = 0
KSM2 260248Z 12013G18KT 27/15 A3001 RMK A01 T02730154  RH  048%=      5-min Rain = 0
KSM2 260249Z 13014G21KT 27/15 A3002 RMK A01 T02730154  RH  048%=      5-min Rain = 0
KSM2 260250Z 12013KT 27/15 A3002 RMK A01 T02730154  RH  048%=      5-min Rain = 0
KSM2 260251Z 12014G20KT 27/16 A3002 RMK A01 T02720155  RH  049%=      5-min Rain = 0
KSM2 260252Z 12016KT 27/16 A3002 RMK A01 T02720155  RH  049%=      5-min Rain = 0
KSM2 260253Z 12014KT 27/16 A3002 RMK A01 T02720155  RH  049%=      5-min Rain = 0
KSM2 260254Z 12013KT 27/16 A3002 RMK A01 T02720155  RH  049%=      5-min Rain = 0
KSM2 260255Z 13016G21KT 27/16 A3002 RMK A01 T02720156  RH  049%=      5-min Rain = 0
KSM2 260256Z 12017KT 27/16 A3002 RMK A01 T02720157  RH  049%=      5-min Rain = 0
KSM2 260257Z 13014G19KT 27/16 A3002 RMK A01 T02720156  RH  049%=      5-min Rain = 0
KSM2 260258Z 12012KT 27/16 A3002 RMK A01 T02720157  RH  049%=      5-min Rain = 0
KSM2 260259Z 13011G16KT 27/16 A3002 RMK A01 T02710157  RH  050%=      5-min Rain = 0
KSM2 260300Z 12012KT 27/16 A3002 RMK A01 T02710158  RH  050%=      5-min Rain = 0
KSM2 260301Z 12014G19KT 27/16 A3002 RMK A01 T02710159  RH  050%=      5-min Rain = 0
KSM2 260302Z 13016KT 27/16 A3003 RMK A01 T02700159  RH  050%=      5-min Rain = 0
KSM2 260303Z 13016KT 27/16 A3003 RMK A01 T02710159  RH  050%=      5-min Rain = 0
KSM2 260304Z 13016G21KT 27/16 A3003 RMK A01 T02710160  RH  051%=      5-min Rain = 0
KSM2 260305Z 13015G23KT 27/16 A3003 RMK A01 T02710160  RH  051%=      5-min Rain = 0
KSM2 260306Z 13015G22KT 27/16 A3003 RMK A01 T02710161  RH  051%=      5-min Rain = 0
KSM2 260307Z 12013G18KT 27/16 A3003 RMK A01 T02710161  RH  051%=      5-min Rain = 0
KSM2 260308Z 13013G18KT 27/16 A3003 RMK A01 T02710161  RH  051%=      5-min Rain = 0
KSM2 260309Z 13013G19KT 27/16 A3004 RMK A01 T02710162  RH  051%=      5-min Rain = 0
KSM2 260310Z 13012KT 27/16 A3004 RMK A01 T02710161  RH  051%=      5-min Rain = 0
KSM2 260311Z 13009KT 27/16 A3004 RMK A01 T02700162  RH  051%=      5-min Rain = 0
KSM2 260312Z 12012G18KT 27/16 A3004 RMK A01 T02700162  RH  051%=      5-min Rain = 0
KSM2 260313Z 12013G18KT 27/16 A3004 RMK A01 T02700162  RH  052%=      5-min Rain = 0
KSM2 260314Z 12011KT 27/16 A3004 RMK A01 T02700162  RH  052%=      5-min Rain = 0
KSM2 260315Z 12014G19KT 27/16 A3005 RMK A01 T02690162  RH  052%=      5-min Rain = 0
KSM2 260316Z 11010KT 27/16 A3005 RMK A01 T02690162  RH  052%=      5-min Rain = 0
KSM2 260317Z 11012KT 27/16 A3005 RMK A01 T02690163  RH  052%=      5-min Rain = 0
KSM2 260318Z 11013G18KT 27/16 A3006 RMK A01 T02690163  RH  052%=      5-min Rain = 0
KSM2 260319Z 10011KT 27/16 A3006 RMK A01 T02690163  RH  052%=      5-min Rain = 0
KSM2 260320Z 09013KT 27/16 A3006 RMK A01 T02690163  RH  052%=      5-min Rain = 0
KSM2 260321Z 09016KT 27/16 A3007 RMK A01 T02690163  RH  052%=      5-min Rain = 0
KSM2 260322Z 09017KT 27/16 A3007 RMK A01 T02690163  RH  052%=      5-min Rain = 0
KSM2 260323Z 08016KT 27/16 A3007 RMK A01 T02690163  RH  052%=      5-min Rain = 0
KSM2 260324Z 07013KT 27/16 A3008 RMK A01 T02690163  RH  052%=      5-min Rain = 0
KSM2 260325Z 07015KT 27/16 A3008 RMK A01 T02680163  RH  052%=      5-min Rain = 0
KSM2 260326Z 07014G19KT 27/16 A3008 RMK A01 T02680163  RH  053%=      5-min Rain = 0
KSM2 260327Z 07013KT 27/16 A3008 RMK A01 T02680163  RH  053%=      5-min Rain = 0
KSM2 260328Z 07013KT 27/16 A3008 RMK A01 T02670163  RH  053%=      5-min Rain = 0
KSM2 260329Z 07013KT 27/16 A3008 RMK A01 T02670163  RH  053%=      5-min Rain = 0
KSM2 260330Z 07014KT 27/16 A3008 RMK A01 T02670163  RH  053%=      5-min Rain = 0
KSM2 260331Z 07012G17KT 27/16 A3008 RMK A01 T02660163  RH  053%=      5-min Rain = 0
KSM2 260332Z 07013G18KT 27/16 A3008 RMK A01 T02660162  RH  053%=      5-min Rain = 0
KSM2 260333Z 08016KT 27/16 A3008 RMK A01 T02660160  RH  052%=      5-min Rain = 0
KSM2 260334Z 08015KT 27/16 A3008 RMK A01 T02670160  RH  052%=      5-min Rain = 0
KSM2 260335Z 07016G21KT 27/16 A3009 RMK A01 T02670159  RH  052%=      5-min Rain = 0
KSM2 260336Z 08016KT 27/16 A3009 RMK A01 T02670159  RH  052%=      5-min Rain = 0
KSM2 260337Z 08017G22KT 27/16 A3009 RMK A01 T02670160  RH  052%=      5-min Rain = 0
KSM2 260338Z 09020KT 27/16 A3008 RMK A01 T02670161  RH  052%=      5-min Rain = 0
KSM2 260339Z 07021G31KT 27/16 A3009 RMK A01 T02670161  RH  052%=      5-min Rain = 0
KSM2 260340Z 07021G29KT 27/16 A3009 RMK A01 T02670162  RH  053%=      5-min Rain = 0
KSM2 260341Z 06021G27KT 27/16 A3009 RMK A01 T02680160  RH  051%=      5-min Rain = 0
KSM2 260342Z 07022KT 27/16 A3009 RMK A01 T02650157  RH  051%=      5-min Rain = 0
KSM2 260343Z 07020G27KT 26/15 A3009 RMK A01 T02620153  RH  051%=      5-min Rain = 0
KSM2 260344Z 07018G24KT 26/15 A3009 RMK A01 T02590152  RH  052%=      5-min Rain = 0
KSM2 260345Z 06016G22KT 26/15 A3009 RMK A01 T02570152  RH  052%=      5-min Rain = 0
KSM2 260346Z 07018KT 26/15 A3009 RMK A01 T02560151  RH  052%=      5-min Rain = 0
KSM2 260347Z 07015KT 26/15 A3009 RMK A01 T02550151  RH  052%=      5-min Rain = 0
KSM2 260348Z 07016G22KT 25/15 A301 RMK A01 T02540151  RH  053%=      5-min Rain = 0
KSM2 260349Z 07015G20KT 25/15 A301 RMK A01 T02530150  RH  053%=      5-min Rain = 0
KSM2 260350Z 07019KT 25/15 A301 RMK A01 T02520149  RH  053%=      5-min Rain = 0
KSM2 260351Z 06016G25KT 25/15 A301 RMK A01 T02500147  RH  053%=      5-min Rain = 0
KSM2 260352Z 07019G25KT 25/14 A301 RMK A01 T02460140  RH  052%=      5-min Rain = 0
KSM2 260353Z 07018G23KT 24/14 A301 RMK A01 T02420137  RH  052%=      5-min Rain = 0
KSM2 260354Z 07017KT 24/14 A301 RMK A01 T02380137  RH  053%=      5-min Rain = 0
KSM2 260355Z 07018KT 24/14 A301 RMK A01 T02370138  RH  054%=      5-min Rain = 0
KSM2 260356Z 07019KT 24/14 A3011 RMK A01 T02360139  RH  054%=      5-min Rain = 0
KSM2 260357Z 08017KT 24/14 A3011 RMK A01 T02360139  RH  055%=      5-min Rain = 0
KSM2 260358Z 08015KT 24/14 A3011 RMK A01 T02350141  RH  055%=      5-min Rain = 0
KSM2 260359Z 08016KT 24/14 A3011 RMK A01 T02350144  RH  056%=      5-min Rain = 0
KSM2 260400Z 08017KT 24/15 A3011 RMK A01 T02350145  RH  057%=      5-min Rain = 0
KSM2 260401Z 08017G22KT 23/15 A3011 RMK A01 T02340147  RH  058%=      5-min Rain = 0
KSM2 260402Z 08020KT 23/15 A3011 RMK A01 T02340149  RH  059%=      5-min Rain = 0
KSM2 260403Z 08018KT 23/16 A3011 RMK A01 T02340155  RH  061%=      5-min Rain = 0
KSM2 260404Z 08020KT 23/16 A3011 RMK A01 T02310159  RH  064%=      5-min Rain = 0
KSM2 260405Z 08023KT 23/16 A3011 RMK A01 T02280159  RH  065%=      5-min Rain = 0
KSM2 260406Z 08019KT 23/16 A3011 RMK A01 T02250161  RH  067%=      5-min Rain = 0
KSM2 260407Z 08017KT 22/16 A3011 RMK A01 T02210163  RH  069%=      5-min Rain = 0
KSM2 260408Z 08020KT 22/17 A3011 RMK A01 T02180165  RH  072%=      5-min Rain = 0
KSM2 260409Z 07021G26KT 22/16 A3011 RMK A01 T02160164  RH  072%=      5-min Rain = 0
KSM2 260410Z 07019KT 21/17 A3011 RMK A01 T02140165  RH  074%=      5-min Rain = 0
KSM2 260411Z 07017G22KT 21/17 A3011 RMK A01 T02130168  RH  076%=      5-min Rain = 0
KSM2 260412Z 07019KT 21/17 A3011 RMK A01 T02110168  RH  076%=      5-min Rain = 0
KSM2 260413Z 07019KT 21/17 A3011 RMK A01 T02090168  RH  077%=      5-min Rain = 0
KSM2 260414Z 07021KT 21/17 A3011 RMK A01 T02080166  RH  077%=      5-min Rain = 0
KSM2 260415Z 08020KT 21/17 A3012 RMK A01 T02060166  RH  078%=      5-min Rain = 0
KSM2 260416Z 07019G25KT 21/17 A3012 RMK A01 T02050166  RH  078%=      5-min Rain = 0
KSM2 260417Z 08020KT 20/17 A3012 RMK A01 T02040166  RH  078%=      5-min Rain = 0
KSM2 260418Z 08019G24KT 20/17 A3012 RMK A01 T02040166  RH  079%=      5-min Rain = 0
KSM2 260419Z 08021G26KT 20/17 A3012 RMK A01 T02030167  RH  079%=      5-min Rain = 0
KSM2 260420Z 08020KT 20/17 A3012 RMK A01 T02030166  RH  079%=      5-min Rain = 0
KSM2 260421Z 08018KT 20/17 A3012 RMK A01 T02030167  RH  080%=      5-min Rain = 0
KSM2 260422Z 08020KT 20/17 A3011 RMK A01 T02030166  RH  080%=      5-min Rain = 0
KSM2 260423Z 08019KT 20/17 A3011 RMK A01 T02020165  RH  079%=      5-min Rain = 0
KSM2 260424Z 08019KT 20/17 A3012 RMK A01 T02020166  RH  079%=      5-min Rain = 0
KSM2 260425Z 08018KT 20/17 A3011 RMK A01 T02030166  RH  079%=      5-min Rain = 0
KSM2 260426Z 08020KT 20/17 A3012 RMK A01 T02020165  RH  079%=      5-min Rain = 0
KSM2 260427Z 08019KT 20/16 A3012 RMK A01 T02020164  RH  079%=      5-min Rain = 0
KSM2 260428Z 08019KT 20/16 A3012 RMK A01 T02030164  RH  078%=      5-min Rain = 0
KSM2 260429Z 08017KT 20/17 A3012 RMK A01 T02030165  RH  078%=      5-min Rain = 0
KSM2 260430Z 08017KT 20/17 A3012 RMK A01 T02040165  RH  078%=      5-min Rain = 0
KSM2 260431Z 08018KT 20/17 A3012 RMK A01 T02030165  RH  079%=      5-min Rain = 0
KSM2 260432Z 08015KT 20/17 A3012 RMK A01 T02030165  RH  078%=      5-min Rain = 0
KSM2 260433Z 08015KT 20/17 A3012 RMK A01 T02030166  RH  079%=      5-min Rain = 0
KSM2 260434Z 08016KT 20/17 A3012 RMK A01 T02030165  RH  078%=      5-min Rain = 0
KSM2 260435Z 08016KT 20/16 A3012 RMK A01 T02040164  RH  078%=      5-min Rain = 0
KSM2 260436Z 08016KT 21/16 A3012 RMK A01 T02050164  RH  077%=      5-min Rain = 0
KSM2 260437Z 08017KT 21/16 A3012 RMK A01 T02060164  RH  077%=      5-min Rain = 0
KSM2 260438Z 08016KT 21/16 A3012 RMK A01 T02070163  RH  076%=      5-min Rain = 0
KSM2 260439Z 08017KT 21/16 A3012 RMK A01 T02070164  RH  076%=      5-min Rain = 0
KSM2 260440Z 08019KT 21/16 A3012 RMK A01 T02080164  RH  076%=      5-min Rain = 0
KSM2 260441Z 08018KT 21/16 A3012 RMK A01 T02080163  RH  075%=      5-min Rain = 0
KSM2 260442Z 08020KT 21/16 A3012 RMK A01 T02090163  RH  075%=      5-min Rain = 0
KSM2 260443Z 08018KT 21/16 A3012 RMK A01 T02100163  RH  074%=      5-min Rain = 0
KSM2 260444Z 08019KT 21/16 A3012 RMK A01 T02100162  RH  074%=      5-min Rain = 0
KSM2 260445Z 09019KT 21/16 A3012 RMK A01 T02100162  RH  074%=      5-min Rain = 0
KSM2 260446Z 09017KT 21/16 A3012 RMK A01 T02100161  RH  073%=      5-min Rain = 0
KSM2 260447Z 09017KT 21/16 A3013 RMK A01 T02110162  RH  074%=      5-min Rain = 0
KSM2 260448Z 09015KT 21/16 A3013 RMK A01 T02110162  RH  074%=      5-min Rain = 0
KSM2 260449Z 09016KT 21/16 A3013 RMK A01 T02110163  RH  074%=      5-min Rain = 0
KSM2 260450Z 09015KT 21/16 A3013 RMK A01 T02100163  RH  075%=      5-min Rain = 0
KSM2 260451Z 09016KT 21/16 A3013 RMK A01 T02100164  RH  075%=      5-min Rain = 0
KSM2 260452Z 09017KT 21/16 A3013 RMK A01 T02090164  RH  075%=      5-min Rain = 0
KSM2 260453Z 09017KT 21/17 A3013 RMK A01 T02090165  RH  076%=      5-min Rain = 0
KSM2 260454Z 09017G22KT 21/17 A3014 RMK A01 T02080167  RH  077%=      5-min Rain = 0
KSM2 260455Z 09017KT 21/17 A3014 RMK A01 T02080166  RH  077%=      5-min Rain = 0
KSM2 260456Z 09014KT 21/17 A3014 RMK A01 T02070167  RH  078%=      5-min Rain = 0.01
KSM2 260457Z 09016KT 21/17 A3014 RMK A01 T02060168  RH  079%=      5-min Rain = 0
KSM2 260458Z 09015KT 21/17 A3014 RMK A01 T02050168  RH  079%=      5-min Rain = 0
KSM2 260459Z 09015KT 21/17 A3014 RMK A01 T02050169  RH  080%=      5-min Rain = 0

Page generated in 0.1213 seconds.